Time,TemperatureF,DewpointF,PressureIn,WindDirection,WindDirectionDegrees,WindSpeedMPH,WindSpeedGustMPH,Humidity,HourlyPrecipIn,Conditions,Clouds,dailyrainin,SoftwareType,DateUTC
2013-03-20 00:00:00,34.0,14.3,30.10,West,259,3.5,3.5,44,0.00,RA,,0.00,WeatherDisplay:10.37,2013-03-20 04:00:00,
2013-03-20 00:01:00,34.1,13.9,30.10,WSW,258,5.8,5.8,43,0.00,RA,,0.00,WeatherDisplay:10.37,2013-03-20 04:01:00,
2013-03-20 00:05:00,34.3,13.0,30.10,WSW,243,8.1,8.1,41,0.00,RA,,0.00,WeatherDisplay:10.37,2013-03-20 04:05:00,
2013-03-20 00:06:00,34.5,12.1,30.10,WNW,300,8.1,8.1,39,0.00,RA,,0.00,WeatherDisplay:10.37,2013-03-20 04:06:00,
2013-03-20 00:10:00,35.1,12.0,30.10,WSW,253,3.5,3.5,38,0.00,,,0.00,WeatherDisplay:10.37,2013-03-20 04:10:00,
2013-03-20 00:11:00,35.2,12.1,30.10,West,259,3.5,3.5,38,0.00,,,0.00,WeatherDisplay:10.37,2013-03-20 04:11:00,
2013-03-20 00:15:00,35.4,12.3,30.10,West,275,2.3,2.3,38,0.00,,,0.00,WeatherDisplay:10.37,2013-03-20 04:15:00,
2013-03-20 00:16:00,35.3,13.3,30.10,WSW,256,2.0,2.0,40,0.00,,,0.00,WeatherDisplay:10.37,2013-03-20 04:16:00,
2013-03-20 00:20:00,35.3,11.6,30.10,SW,222,3.5,3.5,37,0.00,,,0.00,WeatherDisplay:10.37,2013-03-20 04:20:00,
2013-03-20 00:21:00,35.3,11.6,30.10,WSW,241,5.0,5.0,37,0.00,,,0.00,WeatherDisplay:10.37,2013-03-20 04:21:00,
2013-03-20 00:25:00,36.1,10.4,30.10,WNW,290,5.8,5.8,34,0.00,,,0.00,WeatherDisplay:10.37,2013-03-20 04:25:00,
2013-03-20 00:26:00,36.1,10.4,30.10,NW,307,5.8,5.8,34,0.00,,,0.00,WeatherDisplay:10.37,2013-03-20 04:26:00,
2013-03-20 00:31:00,36.3,10.6,30.10,West,279,5.8,5.8,34,0.00,,,0.00,WeatherDisplay:10.37,2013-03-20 04:31:00,
2013-03-20 00:32:00,36.3,9.9,30.10,WSW,256,5.8,5.8,33,0.00,,,0.00,WeatherDisplay:10.37,2013-03-20 04:32:00,
2013-03-20 00:36:00,36.6,10.2,30.10,WSW,243,3.5,3.5,33,0.00,,,0.00,WeatherDisplay:10.37,2013-03-20 04:36:00,
2013-03-20 00:37:00,36.6,10.2,30.10,West,272,3.5,3.5,33,0.00,,,0.00,WeatherDisplay:10.37,2013-03-20 04:37:00,
2013-03-20 00:41:00,36.6,9.5,30.10,West,263,3.5,3.5,32,0.00,,,0.00,WeatherDisplay:10.37,2013-03-20 04:41:00,
2013-03-20 00:42:00,36.6,8.8,30.10,NW,310,4.6,4.6,31,0.00,,,0.00,WeatherDisplay:10.37,2013-03-20 04:42:00,
2013-03-20 00:43:00,36.6,9.5,30.10,WNW,293,5.0,5.0,32,0.00,,,0.00,WeatherDisplay:10.37,2013-03-20 04:43:00,
2013-03-20 00:46:00,36.6,9.5,30.10,WSW,250,4.6,4.6,32,0.00,,,0.00,WeatherDisplay:10.37,2013-03-20 04:46:00,
2013-03-20 00:47:00,36.6,8.8,30.10,WSW,245,5.8,5.8,31,0.00,,,0.00,WeatherDisplay:10.37,2013-03-20 04:47:00,
2013-03-20 00:48:00,36.6,9.5,30.10,West,274,5.8,5.8,32,0.00,,,0.00,WeatherDisplay:10.37,2013-03-20 04:48:00,
2013-03-20 00:52:00,36.6,9.5,30.10,WNW,293,7.0,7.0,32,0.00,,,0.00,WeatherDisplay:10.37,2013-03-20 04:52:00,
2013-03-20 00:53:00,36.7,8.9,30.10,WNW,283,3.5,5.6,31,0.00,,,0.00,WeatherDisplay:10.37,2013-03-20 04:53:00,
2013-03-20 00:58:00,36.6,8.8,30.10,West,265,6.9,6.9,31,0.00,,,0.00,WeatherDisplay:10.37,2013-03-20 04:58:00,
2013-03-20 00:59:00,36.7,8.9,30.10,WNW,290,6.9,6.9,31,0.00,,,0.00,WeatherDisplay:10.37,2013-03-20 04:59:00,
2013-03-20 01:03:00,36.7,9.6,30.10,West,272,2.3,2.3,32,0.00,,,0.00,WeatherDisplay:10.37,2013-03-20 05:03:00,
2013-03-20 01:04:00,36.7,9.6,30.10,West,273,2.3,2.3,32,0.00,,,0.00,WeatherDisplay:10.37,2013-03-20 05:04:00,
2013-03-20 01:08:00,36.4,9.3,30.10,WNW,287,1.2,1.2,32,0.00,,,0.00,WeatherDisplay:10.37,2013-03-20 05:08:00,
2013-03-20 01:09:00,36.3,9.9,30.10,WNW,286,1.2,1.2,33,0.00,,,0.00,WeatherDisplay:10.37,2013-03-20 05:09:00,
2013-03-20 01:14:00,36.0,9.6,30.10,WNW,292,3.5,3.5,33,0.00,,,0.00,WeatherDisplay:10.37,2013-03-20 05:14:00,
2013-03-20 01:19:00,35.9,9.5,30.10,WNW,291,3.5,3.5,33,0.00,,,0.00,WeatherDisplay:10.37,2013-03-20 05:19:00,
2013-03-20 01:24:00,36.0,8.9,30.11,West,262,3.5,3.5,32,0.00,,,0.00,WeatherDisplay:10.37,2013-03-20 05:24:00,
2013-03-20 01:29:00,36.1,8.3,30.11,West,261,6.9,6.9,31,0.00,,,0.00,WeatherDisplay:10.37,2013-03-20 05:29:00,
2013-03-20 01:30:00,36.1,8.3,30.11,West,267,3.0,7.0,31,0.00,,,0.00,WeatherDisplay:10.37,2013-03-20 05:30:00,
2013-03-20 01:34:00,36.1,9.7,30.11,West,271,2.3,2.3,33,0.00,,,0.00,WeatherDisplay:10.37,2013-03-20 05:34:00,
2013-03-20 01:35:00,36.1,9.0,30.11,West,268,1.0,6.0,32,0.00,,,0.00,WeatherDisplay:10.37,2013-03-20 05:35:00,
2013-03-20 01:39:00,36.0,9.6,30.11,NW,316,3.5,3.5,33,0.00,,,0.00,WeatherDisplay:10.37,2013-03-20 05:39:00,
2013-03-20 01:40:00,36.0,8.9,30.11,WNW,295,3.5,3.5,32,0.00,,,0.00,WeatherDisplay:10.37,2013-03-20 05:40:00,
2013-03-20 01:44:00,36.0,9.6,30.11,WSW,245,4.6,4.6,33,0.00,,,0.00,WeatherDisplay:10.37,2013-03-20 05:44:00,
2013-03-20 01:45:00,36.0,9.6,30.11,WSW,242,4.6,4.6,33,0.00,,,0.00,WeatherDisplay:10.37,2013-03-20 05:45:00,
2013-03-20 01:49:00,36.0,9.6,30.11,West,269,3.0,3.0,33,0.00,,,0.00,WeatherDisplay:10.37,2013-03-20 05:49:00,
2013-03-20 01:50:00,36.0,9.6,30.11,WNW,298,5.8,5.8,33,0.00,,,0.00,WeatherDisplay:10.37,2013-03-20 05:50:00,
2013-03-20 01:55:00,36.0,10.3,30.11,West,271,3.5,3.5,34,0.00,,,0.00,WeatherDisplay:10.37,2013-03-20 05:55:00,
2013-03-20 02:00:00,35.8,8.8,30.11,West,281,4.6,4.6,32,0.00,,,0.00,WeatherDisplay:10.37,2013-03-20 06:00:00,
2013-03-20 02:05:00,35.8,10.1,30.10,WNW,286,1.2,0.0,34,0.00,CLR,,0.00,WeatherDisplay:10.37,2013-03-20 06:05:00,
2013-03-20 02:06:00,35.7,10.0,30.11,WNW,286,1.2,1.2,34,0.00,CLR,,0.00,WeatherDisplay:10.37,2013-03-20 06:06:00,
2013-03-20 02:10:00,35.4,10.4,30.10,WNW,290,4.0,4.0,35,0.00,CLR,,0.00,WeatherDisplay:10.37,2013-03-20 06:10:00,
2013-03-20 02:11:00,35.4,9.8,30.10,WSW,255,4.6,4.6,34,0.00,CLR,,0.00,WeatherDisplay:10.37,2013-03-20 06:11:00,
2013-03-20 02:16:00,35.3,9.7,30.11,West,264,3.5,3.5,34,0.00,CLR,,0.00,WeatherDisplay:10.37,2013-03-20 06:16:00,
2013-03-20 02:17:00,35.3,9.7,30.11,West,266,3.5,3.5,34,0.00,CLR,,0.00,WeatherDisplay:10.37,2013-03-20 06:17:00,
2013-03-20 02:22:00,34.9,11.8,30.11,West,267,1.2,1.2,38,0.00,CLR,,0.00,WeatherDisplay:10.37,2013-03-20 06:22:00,
2013-03-20 02:23:00,34.7,11.0,30.11,West,267,1.2,1.2,37,0.00,CLR,,0.00,WeatherDisplay:10.37,2013-03-20 06:23:00,
2013-03-20 02:27:00,34.5,10.2,30.11,West,262,1.2,1.2,36,0.00,CLR,,0.00,WeatherDisplay:10.37,2013-03-20 06:27:00,
2013-03-20 02:28:00,34.5,10.2,30.11,West,273,3.5,3.5,36,0.00,CLR,,0.00,WeatherDisplay:10.37,2013-03-20 06:28:00,
2013-03-20 02:32:00,34.4,10.8,30.11,West,260,1.2,1.2,37,0.00,CLR,,0.00,WeatherDisplay:10.37,2013-03-20 06:32:00,
2013-03-20 02:33:00,34.4,10.8,30.10,West,260,1.2,1.2,37,0.00,CLR,,0.00,WeatherDisplay:10.37,2013-03-20 06:33:00,
2013-03-20 02:37:00,34.3,10.7,30.10,West,262,5.8,5.8,37,0.00,CLR,,0.00,WeatherDisplay:10.37,2013-03-20 06:37:00,
2013-03-20 02:38:00,34.3,10.7,30.10,West,263,5.8,5.8,37,0.00,CLR,,0.00,WeatherDisplay:10.37,2013-03-20 06:38:00,
2013-03-20 02:43:00,34.4,10.8,30.10,WSW,252,4.6,4.6,37,0.00,CLR,,0.00,WeatherDisplay:10.37,2013-03-20 06:43:00,
2013-03-20 02:48:00,34.5,10.2,30.10,West,260,3.5,3.5,36,0.00,CLR,,0.00,WeatherDisplay:10.37,2013-03-20 06:48:00,
2013-03-20 02:53:00,34.4,10.2,30.10,NW,309,3.5,3.5,36,0.00,CLR,,0.00,WeatherDisplay:10.37,2013-03-20 06:53:00,
2013-03-20 02:54:00,34.4,10.8,30.10,WNW,288,3.5,3.5,37,0.00,CLR,,0.00,WeatherDisplay:10.37,2013-03-20 06:54:00,
2013-03-20 02:58:00,34.2,11.2,30.10,West,269,1.2,1.2,38,0.00,CLR,,0.00,WeatherDisplay:10.37,2013-03-20 06:58:00,
2013-03-20 02:59:00,34.2,11.2,30.10,West,270,0.0,0.0,38,0.00,CLR,,0.00,WeatherDisplay:10.37,2013-03-20 06:59:00,
2013-03-20 03:03:00,34.0,11.0,30.10,West,269,2.3,2.3,38,0.00,CLR,,0.00,WeatherDisplay:10.37,2013-03-20 07:03:00,
2013-03-20 03:04:00,33.9,10.9,30.10,West,270,2.3,2.3,38,0.00,CLR,,0.00,WeatherDisplay:10.37,2013-03-20 07:04:00,
2013-03-20 03:08:00,33.7,11.3,30.10,West,269,0.0,0.0,39,0.00,CLR,,0.00,WeatherDisplay:10.37,2013-03-20 07:08:00,
2013-03-20 03:09:00,33.7,11.3,30.10,West,269,1.2,0.0,39,0.00,CLR,,0.00,WeatherDisplay:10.37,2013-03-20 07:09:00,
2013-03-20 03:13:00,33.4,11.1,30.10,West,270,0.0,0.0,39,0.00,CLR,,0.00,WeatherDisplay:10.37,2013-03-20 07:13:00,
2013-03-20 03:14:00,33.4,11.1,30.10,West,269,0.0,0.0,39,0.00,CLR,,0.00,WeatherDisplay:10.37,2013-03-20 07:14:00,
2013-03-20 03:15:00,33.3,11.5,30.10,West,269,0.0,0.0,40,0.00,CLR,,0.00,WeatherDisplay:10.37,2013-03-20 07:15:00,
2013-03-20 03:18:00,32.8,12.2,30.10,West,269,0.0,0.0,42,0.00,CLR,,0.00,WeatherDisplay:10.37,2013-03-20 07:18:00,
2013-03-20 03:19:00,32.7,12.1,30.10,West,269,1.2,1.2,42,0.00,CLR,,0.00,WeatherDisplay:10.37,2013-03-20 07:19:00,
2013-03-20 03:20:00,32.7,12.1,30.10,West,269,1.2,1.2,42,0.00,CLR,,0.00,WeatherDisplay:10.37,2013-03-20 07:20:00,
2013-03-20 03:24:00,32.1,14.1,30.10,West,270,1.2,1.2,47,0.00,CLR,,0.00,WeatherDisplay:10.37,2013-03-20 07:24:00,
2013-03-20 03:25:00,32.0,14.0,30.10,West,269,0.0,0.0,47,0.00,CLR,,0.00,WeatherDisplay:10.37,2013-03-20 07:25:00,
2013-03-20 03:29:00,31.4,13.9,30.09,West,270,1.2,1.2,48,0.00,CLR,,0.00,WeatherDisplay:10.37,2013-03-20 07:29:00,
2013-03-20 03:30:00,31.2,14.2,30.09,West,269,1.2,1.2,49,0.00,CLR,,0.00,WeatherDisplay:10.37,2013-03-20 07:30:00,
2013-03-20 03:34:00,30.6,14.6,30.10,West,269,1.2,0.0,51,0.00,CLR,,0.00,WeatherDisplay:10.37,2013-03-20 07:34:00,
2013-03-20 03:35:00,30.5,14.9,30.09,West,269,0.0,0.0,52,0.00,CLR,,0.00,WeatherDisplay:10.37,2013-03-20 07:35:00,
2013-03-20 03:36:00,30.4,15.3,30.10,West,269,0.0,0.0,53,0.00,CLR,,0.00,WeatherDisplay:10.37,2013-03-20 07:36:00,
2013-03-20 03:39:00,30.1,15.0,30.09,West,269,0.0,0.0,53,0.00,CLR,,0.00,WeatherDisplay:10.37,2013-03-20 07:39:00,
2013-03-20 03:40:00,30.0,15.3,30.10,West,270,0.0,0.0,54,0.00,CLR,,0.00,WeatherDisplay:10.37,2013-03-20 07:40:00,
2013-03-20 03:41:00,29.9,15.7,30.09,West,269,0.0,0.0,55,0.00,CLR,,0.00,WeatherDisplay:10.37,2013-03-20 07:41:00,
2013-03-20 03:42:00,29.8,16.0,30.10,West,270,0.0,0.0,56,0.00,CLR,,0.00,WeatherDisplay:10.37,2013-03-20 07:42:00,
2013-03-20 03:44:00,29.6,15.8,30.09,SW,231,1.2,1.2,56,0.00,CLR,,0.00,WeatherDisplay:10.37,2013-03-20 07:44:00,
2013-03-20 03:45:00,29.5,16.1,30.09,SW,232,1.2,0.0,57,0.00,CLR,,0.00,WeatherDisplay:10.37,2013-03-20 07:45:00,
2013-03-20 03:46:00,29.4,16.0,30.09,SW,231,0.0,0.0,57,0.00,CLR,,0.00,WeatherDisplay:10.37,2013-03-20 07:46:00,
2013-03-20 03:47:00,29.4,16.0,30.09,SW,231,0.0,0.0,57,0.00,CLR,,0.00,WeatherDisplay:10.37,2013-03-20 07:47:00,
2013-03-20 03:49:00,29.1,15.7,30.09,SW,232,1.2,0.0,57,0.00,CLR,,0.00,WeatherDisplay:10.37,2013-03-20 07:49:00,
2013-03-20 03:50:00,29.0,15.7,30.09,SW,232,0.0,0.0,57,0.00,CLR,,0.00,WeatherDisplay:10.37,2013-03-20 07:50:00,
2013-03-20 03:51:00,28.9,16.0,30.09,SW,231,0.0,0.0,58,0.00,CLR,,0.00,WeatherDisplay:10.37,2013-03-20 07:51:00,
2013-03-20 03:52:00,28.9,16.0,30.09,SW,232,0.0,0.0,58,0.00,CLR,,0.00,WeatherDisplay:10.37,2013-03-20 07:52:00,
2013-03-20 03:54:00,28.7,15.8,30.10,SW,231,0.0,0.0,58,0.00,CLR,,0.00,WeatherDisplay:10.37,2013-03-20 07:54:00,
2013-03-20 03:56:00,28.6,16.5,30.10,SW,231,0.0,0.0,60,0.00,CLR,,0.00,WeatherDisplay:10.37,2013-03-20 07:56:00,
2013-03-20 03:57:00,28.5,16.4,30.10,SW,232,0.0,0.0,60,0.00,CLR,,0.00,WeatherDisplay:10.37,2013-03-20 07:57:00,
2013-03-20 03:59:00,28.3,15.8,30.10,SW,231,0.0,0.0,59,0.00,CLR,,0.00,WeatherDisplay:10.37,2013-03-20 07:59:00,
2013-03-20 04:01:00,28.1,16.4,30.10,SW,231,0.0,0.0,61,0.00,CLR,,0.00,WeatherDisplay:10.37,2013-03-20 08:01:00,
2013-03-20 04:02:00,28.0,16.3,30.10,SW,231,0.0,0.0,61,0.00,CLR,,0.00,WeatherDisplay:10.37,2013-03-20 08:02:00,
2013-03-20 04:05:00,27.9,16.2,30.10,SW,231,1.2,1.2,61,0.00,CLR,,0.00,WeatherDisplay:10.37,2013-03-20 08:05:00,
2013-03-20 04:07:00,27.8,16.1,30.10,SW,232,0.0,0.0,61,0.00,CLR,,0.00,WeatherDisplay:10.37,2013-03-20 08:07:00,
2013-03-20 04:10:00,27.7,16.7,30.09,SW,231,1.2,0.0,63,0.00,CLR,,0.00,WeatherDisplay:10.37,2013-03-20 08:10:00,
2013-03-20 04:12:00,27.5,16.9,30.09,SW,232,1.2,1.2,64,0.00,CLR,,0.00,WeatherDisplay:10.37,2013-03-20 08:12:00,
2013-03-20 04:13:00,27.5,16.9,30.09,SW,232,1.2,0.0,64,0.00,CLR,,0.00,WeatherDisplay:10.37,2013-03-20 08:13:00,
2013-03-20 04:14:00,27.4,16.8,30.09,SW,232,1.2,1.2,64,0.00,CLR,,0.00,WeatherDisplay:10.37,2013-03-20 08:14:00,
2013-03-20 04:16:00,27.3,16.4,30.09,SSE,164,1.2,0.0,63,0.00,CLR,,0.00,WeatherDisplay:10.37,2013-03-20 08:16:00,
2013-03-20 04:18:00,27.3,16.4,30.09,SSE,164,1.2,0.0,63,0.00,CLR,,0.00,WeatherDisplay:10.37,2013-03-20 08:18:00,
2013-03-20 04:19:00,27.3,16.4,30.09,SSE,164,0.0,0.0,63,0.00,CLR,,0.00,WeatherDisplay:10.37,2013-03-20 08:19:00,
2013-03-20 04:22:00,27.3,16.0,30.09,SSE,164,0.0,0.0,62,0.00,CLR,,0.00,WeatherDisplay:10.37,2013-03-20 08:22:00,
2013-03-20 04:23:00,27.3,16.4,30.09,SSE,164,0.0,0.0,63,0.00,CLR,,0.00,WeatherDisplay:10.37,2013-03-20 08:23:00,
2013-03-20 04:24:00,27.2,16.3,30.09,SSE,164,0.0,0.0,63,0.00,CLR,,0.00,WeatherDisplay:10.37,2013-03-20 08:24:00,
2013-03-20 04:27:00,27.1,16.2,30.09,SSE,164,0.0,0.0,63,0.00,CLR,,0.00,WeatherDisplay:10.37,2013-03-20 08:27:00,
2013-03-20 04:29:00,27.0,16.4,30.09,SSE,164,0.0,0.0,64,0.00,CLR,,0.00,WeatherDisplay:10.37,2013-03-20 08:29:00,
2013-03-20 04:30:00,27.0,16.4,30.09,SSE,164,0.0,0.0,64,0.00,CLR,,0.00,WeatherDisplay:10.37,2013-03-20 08:30:00,
2013-03-20 04:32:00,26.8,17.0,30.09,SSE,164,0.0,0.0,66,0.00,CLR,,0.00,WeatherDisplay:10.37,2013-03-20 08:32:00,
2013-03-20 04:34:00,26.6,16.8,30.09,SSE,164,0.0,0.0,66,0.00,CLR,,0.00,WeatherDisplay:10.37,2013-03-20 08:34:00,
2013-03-20 04:35:00,26.6,17.1,30.09,SSE,164,1.2,1.2,67,0.00,CLR,,0.00,WeatherDisplay:10.37,2013-03-20 08:35:00,
2013-03-20 04:37:00,26.5,16.7,30.09,SSE,164,0.0,0.0,66,0.00,CLR,,0.00,WeatherDisplay:10.37,2013-03-20 08:37:00,
2013-03-20 04:39:00,26.5,16.7,30.08,SSE,164,1.2,1.2,66,0.00,CLR,,0.00,WeatherDisplay:10.37,2013-03-20 08:39:00,
2013-03-20 04:40:00,26.5,16.7,30.09,SSE,164,1.2,0.0,66,0.00,CLR,,0.00,WeatherDisplay:10.37,2013-03-20 08:40:00,
2013-03-20 04:42:00,26.5,16.7,30.08,SSE,164,0.0,0.0,66,0.00,CLR,,0.00,WeatherDisplay:10.37,2013-03-20 08:42:00,
2013-03-20 04:44:00,26.4,16.6,30.08,SSE,164,0.0,0.0,66,0.00,CLR,,0.00,WeatherDisplay:10.37,2013-03-20 08:44:00,
2013-03-20 04:45:00,26.3,16.5,30.08,SSE,164,0.0,0.0,66,0.00,CLR,,0.00,WeatherDisplay:10.37,2013-03-20 08:45:00,
2013-03-20 04:47:00,26.1,15.9,30.08,SSE,164,0.0,0.0,65,0.00,CLR,,0.00,WeatherDisplay:10.37,2013-03-20 08:47:00,
2013-03-20 04:49:00,26.0,16.5,30.08,SSE,164,1.2,0.0,67,0.00,CLR,,0.00,WeatherDisplay:10.37,2013-03-20 08:49:00,
2013-03-20 04:50:00,26.0,16.5,30.08,SSE,164,1.2,0.0,67,0.00,CLR,,0.00,WeatherDisplay:10.37,2013-03-20 08:50:00,
2013-03-20 04:53:00,25.8,16.0,30.08,SSE,164,0.0,0.0,66,0.00,CLR,,0.00,WeatherDisplay:10.37,2013-03-20 08:53:00,
2013-03-20 04:55:00,25.7,16.3,30.08,SSE,164,0.0,0.0,67,0.00,CLR,,0.00,WeatherDisplay:10.37,2013-03-20 08:55:00,
2013-03-20 04:57:00,25.5,16.4,30.08,SSE,164,0.0,0.0,68,0.00,CLR,,0.00,WeatherDisplay:10.37,2013-03-20 08:57:00,
2013-03-20 04:58:00,25.5,16.7,30.08,SSE,164,0.0,0.0,69,0.00,CLR,,0.00,WeatherDisplay:10.37,2013-03-20 08:58:00,
2013-03-20 05:00:00,25.4,16.6,30.08,SSE,164,0.0,0.0,69,0.00,CLR,,0.00,WeatherDisplay:10.37,2013-03-20 09:00:00,
2013-03-20 05:02:00,25.3,16.5,30.08,SSE,164,0.0,0.0,69,0.00,CLR,,0.00,WeatherDisplay:10.37,2013-03-20 09:02:00,
2013-03-20 05:03:00,25.2,16.8,30.08,SSE,164,0.0,0.0,70,0.00,CLR,,0.00,WeatherDisplay:10.37,2013-03-20 09:03:00,
2013-03-20 05:05:00,25.1,16.7,30.08,SSE,163,0.0,0.0,70,0.00,CLR,,0.00,WeatherDisplay:10.37,2013-03-20 09:05:00,
2013-03-20 05:07:00,25.0,16.9,30.08,SSE,164,0.0,0.0,71,0.00,CLR,,0.00,WeatherDisplay:10.37,2013-03-20 09:07:00,
2013-03-20 05:08:00,24.9,16.8,30.08,SSE,164,0.0,0.0,71,0.00,CLR,,0.00,WeatherDisplay:10.37,2013-03-20 09:08:00,
2013-03-20 05:10:00,24.8,16.7,30.08,SSE,164,0.0,0.0,71,0.00,CLR,,0.00,WeatherDisplay:10.37,2013-03-20 09:10:00,
2013-03-20 05:12:00,24.7,16.6,30.08,SSE,164,0.0,0.0,71,0.00,CLR,,0.00,WeatherDisplay:10.37,2013-03-20 09:12:00,
2013-03-20 05:13:00,24.6,16.5,30.08,SSE,164,0.0,0.0,71,0.00,CLR,,0.00,WeatherDisplay:10.37,2013-03-20 09:13:00,
2013-03-20 05:15:00,24.5,16.4,30.09,SSE,164,0.0,0.0,71,0.00,CLR,,0.00,WeatherDisplay:10.37,2013-03-20 09:15:00,
2013-03-20 05:16:00,24.5,16.4,30.09,SSE,164,0.0,0.0,71,0.00,CLR,,0.00,WeatherDisplay:10.37,2013-03-20 09:16:00,
2013-03-20 05:17:00,24.4,16.3,30.09,SSE,164,0.0,0.0,71,0.00,CLR,,0.00,WeatherDisplay:10.37,2013-03-20 09:17:00,
2013-03-20 05:19:00,24.4,16.7,30.09,SSE,164,0.0,0.0,72,0.00,CLR,,0.00,WeatherDisplay:10.37,2013-03-20 09:19:00,
2013-03-20 05:21:00,24.3,16.6,30.09,SSE,164,0.0,0.0,72,0.00,CLR,,0.00,WeatherDisplay:10.37,2013-03-20 09:21:00,
2013-03-20 05:22:00,24.2,16.5,30.09,SSE,164,0.0,0.0,72,0.00,CLR,,0.00,WeatherDisplay:10.37,2013-03-20 09:22:00,
2013-03-20 05:24:00,24.1,16.4,30.09,SSE,164,0.0,0.0,72,0.00,CLR,,0.00,WeatherDisplay:10.37,2013-03-20 09:24:00,
2013-03-20 05:26:00,24.1,16.4,30.09,SSE,164,1.2,1.2,72,0.00,CLR,,0.00,WeatherDisplay:10.37,2013-03-20 09:26:00,
2013-03-20 05:27:00,24.1,17.0,30.09,SSE,164,0.0,0.0,74,0.00,CLR,,0.00,WeatherDisplay:10.37,2013-03-20 09:27:00,
2013-03-20 05:29:00,24.2,17.1,30.09,SSE,163,0.0,0.0,74,0.00,CLR,,0.00,WeatherDisplay:10.37,2013-03-20 09:29:00,
2013-03-20 05:31:00,24.2,17.1,30.09,SSE,164,0.0,0.0,74,0.00,CLR,,0.00,WeatherDisplay:10.37,2013-03-20 09:31:00,
2013-03-20 05:32:00,24.2,17.1,30.09,SSE,163,0.0,0.0,74,0.00,CLR,,0.00,WeatherDisplay:10.37,2013-03-20 09:32:00,
2013-03-20 05:34:00,24.2,17.1,30.09,SSE,164,0.0,0.0,74,0.00,CLR,,0.00,WeatherDisplay:10.37,2013-03-20 09:34:00,
2013-03-20 05:36:00,24.2,17.4,30.09,SSE,164,0.0,0.0,75,0.00,CLR,,0.00,WeatherDisplay:10.37,2013-03-20 09:36:00,
2013-03-20 05:37:00,24.1,17.0,30.09,SSE,164,0.0,0.0,74,0.00,CLR,,0.00,WeatherDisplay:10.37,2013-03-20 09:37:00,
2013-03-20 05:38:00,24.0,16.9,30.09,SSE,164,0.0,0.0,74,0.00,CLR,,0.00,WeatherDisplay:10.37,2013-03-20 09:38:00,
2013-03-20 05:39:00,24.0,16.9,30.09,SSE,163,0.0,0.0,74,0.00,CLR,,0.00,WeatherDisplay:10.37,2013-03-20 09:39:00,
2013-03-20 05:41:00,23.9,16.8,30.09,SSE,163,0.0,0.0,74,0.00,CLR,,0.00,WeatherDisplay:10.37,2013-03-20 09:41:00,
2013-03-20 05:42:00,23.8,17.0,30.09,SSE,164,0.0,0.0,75,0.00,CLR,,0.00,WeatherDisplay:10.37,2013-03-20 09:42:00,
2013-03-20 05:43:00,23.7,16.9,30.09,SSE,164,0.0,0.0,75,0.00,CLR,,0.00,WeatherDisplay:10.37,2013-03-20 09:43:00,
2013-03-20 05:44:00,23.7,17.2,30.09,SSE,164,0.0,0.0,76,0.00,CLR,,0.00,WeatherDisplay:10.37,2013-03-20 09:44:00,
2013-03-20 05:46:00,23.7,17.2,30.09,SSE,164,0.0,0.0,76,0.00,CLR,,0.00,WeatherDisplay:10.37,2013-03-20 09:46:00,
2013-03-20 05:47:00,23.7,17.2,30.09,SSE,164,0.0,0.0,76,0.00,CLR,,0.00,WeatherDisplay:10.37,2013-03-20 09:47:00,
2013-03-20 05:48:00,23.6,16.8,30.09,SSE,163,0.0,0.0,75,0.00,CLR,,0.00,WeatherDisplay:10.37,2013-03-20 09:48:00,
2013-03-20 05:49:00,23.6,16.8,30.09,SSE,164,0.0,0.0,75,0.00,CLR,,0.00,WeatherDisplay:10.37,2013-03-20 09:49:00,
2013-03-20 05:52:00,23.5,17.0,30.09,WSW,240,0.0,0.0,76,0.00,CLR,,0.00,WeatherDisplay:10.37,2013-03-20 09:52:00,
2013-03-20 05:54:00,23.6,17.4,30.09,WSW,240,0.0,0.0,77,0.00,CLR,,0.00,WeatherDisplay:10.37,2013-03-20 09:54:00,
2013-03-20 05:57:00,23.7,17.2,30.09,WSW,240,0.0,0.0,76,0.00,CLR,,0.00,WeatherDisplay:10.37,2013-03-20 09:57:00,
2013-03-20 05:58:00,23.7,17.2,30.09,WSW,240,0.0,0.0,76,0.00,CLR,,0.00,WeatherDisplay:10.37,2013-03-20 09:58:00,
2013-03-20 05:59:00,23.7,17.5,30.09,WSW,240,0.0,0.0,77,0.00,CLR,,0.00,WeatherDisplay:10.37,2013-03-20 09:59:00,
2013-03-20 06:00:00,23.7,17.5,30.09,WSW,241,0.0,0.0,77,0.00,CLR,,0.00,WeatherDisplay:10.37,2013-03-20 10:00:00,
2013-03-20 06:02:00,23.6,17.1,30.09,WSW,241,0.0,0.0,76,0.00,CLR,,0.00,WeatherDisplay:10.37,2013-03-20 10:02:00,
2013-03-20 06:03:00,23.6,17.4,30.09,WSW,240,0.0,0.0,77,0.00,CLR,,0.00,WeatherDisplay:10.37,2013-03-20 10:03:00,
2013-03-20 06:04:00,23.5,17.3,30.09,WSW,240,0.0,0.0,77,0.00,CLR,,0.00,WeatherDisplay:10.37,2013-03-20 10:04:00,
2013-03-20 06:05:00,23.5,17.3,30.09,WSW,241,0.0,0.0,77,0.00,CLR,,0.00,WeatherDisplay:10.37,2013-03-20 10:05:00,
2013-03-20 06:07:00,23.4,17.6,30.09,WSW,240,0.0,0.0,78,0.00,CLR,,0.00,WeatherDisplay:10.37,2013-03-20 10:07:00,
2013-03-20 06:08:00,23.4,17.6,30.09,WSW,240,0.0,0.0,78,0.00,CLR,,0.00,WeatherDisplay:10.37,2013-03-20 10:08:00,
2013-03-20 06:09:00,23.4,17.6,30.09,WSW,241,0.0,0.0,78,0.00,CLR,,0.00,WeatherDisplay:10.37,2013-03-20 10:09:00,
2013-03-20 06:11:00,23.4,17.6,30.09,WSW,241,0.0,0.0,78,0.00,CLR,,0.00,WeatherDisplay:10.37,2013-03-20 10:11:00,
2013-03-20 06:12:00,23.3,17.5,30.09,WSW,241,0.0,0.0,78,0.00,CLR,,0.00,WeatherDisplay:10.37,2013-03-20 10:12:00,
2013-03-20 06:13:00,23.2,17.4,30.09,WSW,241,0.0,0.0,78,0.00,CLR,,0.00,WeatherDisplay:10.37,2013-03-20 10:13:00,
2013-03-20 06:14:00,23.2,17.4,30.09,WSW,241,0.0,0.0,78,0.00,CLR,,0.00,WeatherDisplay:10.37,2013-03-20 10:14:00,
2013-03-20 06:16:00,23.2,17.7,30.09,WSW,240,0.0,0.0,79,0.00,CLR,,0.00,WeatherDisplay:10.37,2013-03-20 10:16:00,
2013-03-20 06:18:00,23.2,17.7,30.09,WSW,241,0.0,0.0,79,0.00,CLR,,0.00,WeatherDisplay:10.37,2013-03-20 10:18:00,
2013-03-20 06:19:00,23.2,17.7,30.09,WSW,240,0.0,0.0,79,0.00,CLR,,0.00,WeatherDisplay:10.37,2013-03-20 10:19:00,
2013-03-20 06:22:00,23.1,17.6,30.09,WSW,240,0.0,0.0,79,0.00,CLR,,0.00,WeatherDisplay:10.37,2013-03-20 10:22:00,
2013-03-20 06:23:00,23.1,17.6,30.09,WSW,240,0.0,0.0,79,0.00,CLR,,0.00,WeatherDisplay:10.37,2013-03-20 10:23:00,
2013-03-20 06:24:00,23.0,17.5,30.09,WSW,241,0.0,0.0,79,0.00,CLR,,0.00,WeatherDisplay:10.37,2013-03-20 10:24:00,
2013-03-20 06:27:00,22.9,17.4,30.09,WSW,241,0.0,0.0,79,0.00,CLR,,0.00,WeatherDisplay:10.37,2013-03-20 10:27:00,
2013-03-20 06:28:00,22.9,17.4,30.09,WSW,241,0.0,0.0,79,0.00,CLR,,0.00,WeatherDisplay:10.37,2013-03-20 10:28:00,
2013-03-20 06:29:00,22.9,17.4,30.09,WSW,240,0.0,0.0,79,0.00,CLR,,0.00,WeatherDisplay:10.37,2013-03-20 10:29:00,
2013-03-20 06:32:00,22.8,17.3,30.09,WSW,240,0.0,0.0,79,0.00,CLR,,0.00,WeatherDisplay:10.37,2013-03-20 10:32:00,
2013-03-20 06:34:00,22.8,17.6,30.09,WSW,241,0.0,0.0,80,0.00,CLR,,0.00,WeatherDisplay:10.37,2013-03-20 10:34:00,
2013-03-20 06:37:00,22.7,17.5,30.09,WSW,240,0.0,0.0,80,0.00,CLR,,0.00,WeatherDisplay:10.37,2013-03-20 10:37:00,
2013-03-20 06:39:00,22.6,17.1,30.10,WSW,240,0.0,0.0,79,0.00,CLR,,0.00,WeatherDisplay:10.37,2013-03-20 10:39:00,
2013-03-20 06:40:00,22.5,17.0,30.10,WSW,240,0.0,0.0,79,0.00,CLR,,0.00,WeatherDisplay:10.37,2013-03-20 10:40:00,
2013-03-20 06:42:00,22.5,17.3,30.10,WSW,240,0.0,0.0,80,0.00,CLR,,0.00,WeatherDisplay:10.37,2013-03-20 10:42:00,
2013-03-20 06:44:00,22.5,17.3,30.10,WSW,240,0.0,0.0,80,0.00,CLR,,0.00,WeatherDisplay:10.37,2013-03-20 10:44:00,
2013-03-20 06:45:00,22.5,17.3,30.10,WSW,240,0.0,0.0,80,0.00,CLR,,0.00,WeatherDisplay:10.37,2013-03-20 10:45:00,
2013-03-20 06:47:00,22.6,17.6,30.10,WSW,240,0.0,0.0,81,0.00,CLR,,0.00,WeatherDisplay:10.37,2013-03-20 10:47:00,
2013-03-20 06:49:00,22.6,17.6,30.10,WSW,240,0.0,0.0,81,0.00,CLR,,0.00,WeatherDisplay:10.37,2013-03-20 10:49:00,
2013-03-20 06:50:00,22.6,17.6,30.10,WSW,240,0.0,0.0,81,0.00,CLR,,0.00,WeatherDisplay:10.37,2013-03-20 10:50:00,
2013-03-20 06:53:00,22.6,17.6,30.10,WSW,241,0.0,0.0,81,0.00,CLR,,0.00,WeatherDisplay:10.37,2013-03-20 10:53:00,
2013-03-20 06:54:00,22.5,17.5,30.10,WSW,240,0.0,0.0,81,0.00,CLR,,0.00,WeatherDisplay:10.37,2013-03-20 10:54:00,
2013-03-20 06:55:00,22.4,17.2,30.10,WSW,241,0.0,0.0,80,0.00,CLR,,0.00,WeatherDisplay:10.37,2013-03-20 10:55:00,
2013-03-20 06:56:00,22.3,17.1,30.10,WSW,241,0.0,0.0,80,0.00,CLR,,0.00,WeatherDisplay:10.37,2013-03-20 10:56:00,
2013-03-20 06:58:00,22.2,17.3,30.10,WSW,240,0.0,0.0,81,0.00,CLR,,0.00,WeatherDisplay:10.37,2013-03-20 10:58:00,
2013-03-20 06:59:00,22.2,17.5,30.10,WSW,240,0.0,0.0,82,0.00,CLR,,0.00,WeatherDisplay:10.37,2013-03-20 10:59:00,
2013-03-20 07:00:00,22.2,17.5,30.10,WSW,240,0.0,0.0,82,0.00,CLR,,0.00,WeatherDisplay:10.37,2013-03-20 11:00:00,
2013-03-20 07:02:00,22.2,17.5,30.10,WSW,240,0.0,0.0,82,0.00,CLR,,0.00,WeatherDisplay:10.37,2013-03-20 11:02:00,
2013-03-20 07:03:00,22.1,17.4,30.10,WSW,240,0.0,0.0,82,0.00,CLR,,0.00,WeatherDisplay:10.37,2013-03-20 11:03:00,
2013-03-20 07:04:00,22.0,17.3,30.10,WSW,240,0.0,0.0,82,0.00,CLR,,0.00,WeatherDisplay:10.37,2013-03-20 11:04:00,
2013-03-20 07:06:00,21.9,17.0,30.10,WSW,240,0.0,0.0,81,0.00,CLR,,0.00,WeatherDisplay:10.37,2013-03-20 11:06:00,
2013-03-20 07:07:00,21.9,17.2,30.10,WSW,240,0.0,0.0,82,0.00,CLR,,0.00,WeatherDisplay:10.37,2013-03-20 11:07:00,
2013-03-20 07:08:00,21.8,17.2,30.10,WSW,240,0.0,0.0,82,0.00,CLR,,0.00,WeatherDisplay:10.37,2013-03-20 11:08:00,
2013-03-20 07:10:00,21.8,17.4,30.10,WSW,241,0.0,0.0,83,0.00,CLR,,0.00,WeatherDisplay:10.37,2013-03-20 11:10:00,
2013-03-20 07:12:00,21.8,17.4,30.10,WSW,240,0.0,0.0,83,0.00,CLR,,0.00,WeatherDisplay:10.37,2013-03-20 11:12:00,
2013-03-20 07:13:00,21.8,17.4,30.10,WSW,240,0.0,0.0,83,0.00,CLR,,0.00,WeatherDisplay:10.37,2013-03-20 11:13:00,
2013-03-20 07:14:00,21.8,17.4,30.10,WSW,240,0.0,0.0,83,0.00,CLR,,0.00,WeatherDisplay:10.37,2013-03-20 11:14:00,
2013-03-20 07:15:00,21.9,17.5,30.10,WSW,241,0.0,0.0,83,0.00,CLR,,0.00,WeatherDisplay:10.37,2013-03-20 11:15:00,
2013-03-20 07:17:00,21.9,17.5,30.10,WSW,240,0.0,0.0,83,0.00,CLR,,0.00,WeatherDisplay:10.37,2013-03-20 11:17:00,
2013-03-20 07:18:00,21.9,17.5,30.10,WSW,240,0.0,0.0,83,0.00,CLR,,0.00,WeatherDisplay:10.37,2013-03-20 11:18:00,
2013-03-20 07:19:00,21.9,17.5,30.10,WSW,240,0.0,0.0,83,0.00,CLR,,0.00,WeatherDisplay:10.37,2013-03-20 11:19:00,
2013-03-20 07:21:00,21.8,17.4,30.10,WSW,240,0.0,0.0,83,0.00,CLR,,0.00,WeatherDisplay:10.37,2013-03-20 11:21:00,
2013-03-20 07:22:00,21.8,17.4,30.10,WSW,240,0.0,0.0,83,0.00,CLR,,0.00,WeatherDisplay:10.37,2013-03-20 11:22:00,
2013-03-20 07:23:00,21.8,17.4,30.10,WSW,241,0.0,0.0,83,0.00,CLR,,0.00,WeatherDisplay:10.37,2013-03-20 11:23:00,
2013-03-20 07:25:00,21.7,17.3,30.10,WSW,241,0.0,0.0,83,0.00,CLR,,0.00,WeatherDisplay:10.37,2013-03-20 11:25:00,
2013-03-20 07:26:00,21.7,17.3,30.10,WSW,240,0.0,0.0,83,0.00,CLR,,0.00,WeatherDisplay:10.37,2013-03-20 11:26:00,
2013-03-20 07:28:00,21.6,17.2,30.11,WSW,240,0.0,0.0,83,0.00,CLR,,0.00,WeatherDisplay:10.37,2013-03-20 11:28:00,
2013-03-20 07:30:00,21.6,17.2,30.11,WSW,240,0.0,0.0,83,0.00,CLR,,0.00,WeatherDisplay:10.37,2013-03-20 11:30:00,
2013-03-20 07:31:00,21.6,17.2,30.11,WSW,241,0.0,0.0,83,0.00,CLR,,0.00,WeatherDisplay:10.37,2013-03-20 11:31:00,
2013-03-20 07:33:00,21.5,17.1,30.11,WSW,240,0.0,0.0,83,0.00,CLR,,0.00,WeatherDisplay:10.37,2013-03-20 11:33:00,
2013-03-20 07:35:00,21.5,17.1,30.11,WSW,240,0.0,0.0,83,0.00,CLR,,0.00,WeatherDisplay:10.37,2013-03-20 11:35:00,
2013-03-20 07:36:00,21.4,17.0,30.11,WSW,241,0.0,0.0,83,0.00,CLR,,0.00,WeatherDisplay:10.37,2013-03-20 11:36:00,
2013-03-20 07:38:00,21.4,17.3,30.11,WSW,241,0.0,0.0,84,0.00,CLR,,0.00,WeatherDisplay:10.37,2013-03-20 11:38:00,
2013-03-20 07:39:00,21.3,17.2,30.10,WSW,241,0.0,0.0,84,0.00,CLR,,0.00,WeatherDisplay:10.37,2013-03-20 11:39:00,
2013-03-20 07:40:00,21.3,17.2,30.10,WSW,240,0.0,0.0,84,0.00,CLR,,0.00,WeatherDisplay:10.37,2013-03-20 11:40:00,
2013-03-20 07:41:00,21.3,17.2,30.10,WSW,241,0.0,0.0,84,0.00,CLR,,0.00,WeatherDisplay:10.37,2013-03-20 11:41:00,
2013-03-20 07:43:00,21.3,17.2,30.10,WSW,241,0.0,0.0,84,0.00,CLR,,0.00,WeatherDisplay:10.37,2013-03-20 11:43:00,
2013-03-20 07:44:00,21.3,17.2,30.10,WSW,240,0.0,0.0,84,0.00,CLR,,0.00,WeatherDisplay:10.37,2013-03-20 11:44:00,
2013-03-20 07:45:00,21.3,17.2,30.11,WSW,241,0.0,0.0,84,0.00,CLR,,0.00,WeatherDisplay:10.37,2013-03-20 11:45:00,
2013-03-20 07:47:00,21.3,17.2,30.11,WSW,241,0.0,0.0,84,0.00,CLR,,0.00,WeatherDisplay:10.37,2013-03-20 11:47:00,
2013-03-20 07:49:00,21.2,17.1,30.11,WSW,241,0.0,0.0,84,0.00,CLR,,0.00,WeatherDisplay:10.37,2013-03-20 11:49:00,
2013-03-20 07:50:00,21.2,17.1,30.11,WSW,241,0.0,0.0,84,0.00,CLR,,0.00,WeatherDisplay:10.37,2013-03-20 11:50:00,
2013-03-20 07:52:00,21.3,17.5,30.11,WSW,241,0.0,0.0,85,0.00,CLR,,0.00,WeatherDisplay:10.37,2013-03-20 11:52:00,
2013-03-20 07:54:00,21.4,17.6,30.11,WSW,241,0.0,0.0,85,0.00,CLR,,0.00,WeatherDisplay:10.37,2013-03-20 11:54:00,
2013-03-20 07:55:00,21.5,17.7,30.11,WSW,241,0.0,0.0,85,0.00,CLR,,0.00,WeatherDisplay:10.37,2013-03-20 11:55:00,
2013-03-20 07:56:00,21.5,17.7,30.11,WSW,240,0.0,0.0,85,0.00,CLR,,0.00,WeatherDisplay:10.37,2013-03-20 11:56:00,
2013-03-20 07:57:00,21.5,17.4,30.11,WSW,240,0.0,0.0,84,0.00,CLR,,0.00,WeatherDisplay:10.37,2013-03-20 11:57:00,
2013-03-20 07:59:00,21.5,17.4,30.11,WSW,240,0.0,0.0,84,0.00,CLR,,0.00,WeatherDisplay:10.37,2013-03-20 11:59:00,
2013-03-20 08:00:00,21.5,17.4,30.11,WSW,240,0.0,0.0,84,0.00,CLR,,0.00,WeatherDisplay:10.37,2013-03-20 12:00:00,
2013-03-20 08:01:00,21.5,17.4,30.11,WSW,240,0.0,0.0,84,0.00,CLR,,0.00,WeatherDisplay:10.37,2013-03-20 12:01:00,
2013-03-20 08:03:00,21.6,17.8,30.11,WSW,240,0.0,0.0,85,0.00,CLR,,0.00,WeatherDisplay:10.37,2013-03-20 12:03:00,
2013-03-20 08:05:00,22.0,18.2,30.11,WSW,240,0.0,0.0,85,0.00,CLR,,0.00,WeatherDisplay:10.37,2013-03-20 12:05:00,
2013-03-20 08:06:00,22.1,18.3,30.11,WSW,240,0.0,0.0,85,0.00,CLR,,0.00,WeatherDisplay:10.37,2013-03-20 12:06:00,
2013-03-20 08:07:00,22.1,18.3,30.11,WSW,241,0.0,0.0,85,0.00,CLR,,0.00,WeatherDisplay:10.37,2013-03-20 12:07:00,
2013-03-20 08:08:00,22.3,18.5,30.11,WSW,240,0.0,0.0,85,0.00,CLR,,0.00,WeatherDisplay:10.37,2013-03-20 12:08:00,
2013-03-20 08:10:00,22.7,18.6,30.11,WSW,240,0.0,0.0,84,0.00,CLR,,0.00,WeatherDisplay:10.37,2013-03-20 12:10:00,
2013-03-20 08:11:00,22.8,18.7,30.11,WSW,240,0.0,0.0,84,0.00,CLR,,0.00,WeatherDisplay:10.37,2013-03-20 12:11:00,
2013-03-20 08:12:00,22.9,18.8,30.11,WSW,240,0.0,0.0,84,0.00,CLR,,0.00,WeatherDisplay:10.37,2013-03-20 12:12:00,
2013-03-20 08:13:00,23.1,19.0,30.11,WSW,241,0.0,0.0,84,0.00,CLR,,0.00,WeatherDisplay:10.37,2013-03-20 12:13:00,
2013-03-20 08:15:00,23.5,19.1,30.11,WSW,241,0.0,0.0,83,0.00,CLR,,0.00,WeatherDisplay:10.37,2013-03-20 12:15:00,
2013-03-20 08:16:00,23.7,19.3,30.11,WSW,241,0.0,0.0,83,0.00,CLR,,0.00,WeatherDisplay:10.37,2013-03-20 12:16:00,
2013-03-20 08:17:00,23.8,19.4,30.12,WSW,240,0.0,0.0,83,0.00,CLR,,0.00,WeatherDisplay:10.37,2013-03-20 12:17:00,
2013-03-20 08:18:00,24.0,19.3,30.12,WSW,241,0.0,0.0,82,0.00,CLR,,0.00,WeatherDisplay:10.37,2013-03-20 12:18:00,
2013-03-20 08:20:00,24.4,19.7,30.12,WSW,240,0.0,0.0,82,0.00,CLR,,0.00,WeatherDisplay:10.37,2013-03-20 12:20:00,
2013-03-20 08:21:00,24.6,19.9,30.12,WSW,241,0.0,0.0,82,0.00,CLR,,0.00,WeatherDisplay:10.37,2013-03-20 12:21:00,
2013-03-20 08:22:00,24.7,19.7,30.12,WSW,241,0.0,0.0,81,0.00,CLR,,0.00,WeatherDisplay:10.37,2013-03-20 12:22:00,
2013-03-20 08:23:00,24.9,19.6,30.12,WSW,241,0.0,0.0,80,0.00,CLR,,0.00,WeatherDisplay:10.37,2013-03-20 12:23:00,
2013-03-20 08:25:00,25.1,19.8,30.12,WSW,240,0.0,0.0,80,0.00,CLR,,0.00,WeatherDisplay:10.37,2013-03-20 12:25:00,
2013-03-20 08:27:00,25.3,19.7,30.12,WSW,241,0.0,0.0,79,0.00,CLR,,0.00,WeatherDisplay:10.37,2013-03-20 12:27:00,
2013-03-20 08:28:00,25.4,19.8,30.12,WSW,240,0.0,0.0,79,0.00,CLR,,0.00,WeatherDisplay:10.37,2013-03-20 12:28:00,
2013-03-20 08:30:00,25.7,19.8,30.12,WSW,241,0.0,0.0,78,0.00,CLR,,0.00,WeatherDisplay:10.37,2013-03-20 12:30:00,
2013-03-20 08:32:00,25.7,19.8,30.12,WSW,240,0.0,0.0,78,0.00,CLR,,0.00,WeatherDisplay:10.37,2013-03-20 12:32:00,
2013-03-20 08:33:00,25.9,20.0,30.12,WSW,240,0.0,0.0,78,0.00,CLR,,0.00,WeatherDisplay:10.37,2013-03-20 12:33:00,
2013-03-20 08:35:00,26.3,20.1,30.12,WSW,240,0.0,0.0,77,0.00,CLR,,0.00,WeatherDisplay:10.37,2013-03-20 12:35:00,
2013-03-20 08:37:00,26.6,20.4,30.12,WSW,240,0.0,0.0,77,0.00,CLR,,0.00,WeatherDisplay:10.37,2013-03-20 12:37:00,
2013-03-20 08:38:00,26.8,20.2,30.13,WSW,241,0.0,0.0,76,0.00,CLR,,0.00,WeatherDisplay:10.37,2013-03-20 12:38:00,
2013-03-20 08:39:00,26.8,20.2,30.13,WSW,240,0.0,0.0,76,0.00,CLR,,0.00,WeatherDisplay:10.37,2013-03-20 12:39:00,
2013-03-20 08:41:00,27.2,20.3,30.13,WSW,240,0.0,0.0,75,0.00,CLR,,0.00,WeatherDisplay:10.37,2013-03-20 12:41:00,
2013-03-20 08:42:00,27.5,20.6,30.13,WSW,240,0.0,0.0,75,0.00,CLR,,0.00,WeatherDisplay:10.37,2013-03-20 12:42:00,
2013-03-20 08:43:00,27.8,20.6,30.13,WSW,240,0.0,0.0,74,0.00,CLR,,0.00,WeatherDisplay:10.37,2013-03-20 12:43:00,
2013-03-20 08:44:00,28.0,20.5,30.13,WSW,240,0.0,0.0,73,0.00,CLR,,0.00,WeatherDisplay:10.37,2013-03-20 12:44:00,
2013-03-20 08:46:00,28.2,20.7,30.13,WSW,240,0.0,0.0,73,0.00,CLR,,0.00,WeatherDisplay:10.37,2013-03-20 12:46:00,
2013-03-20 08:47:00,28.5,20.6,30.13,WSW,241,0.0,0.0,72,0.00,CLR,,0.00,WeatherDisplay:10.37,2013-03-20 12:47:00,
2013-03-20 08:49:00,28.8,20.9,30.13,WSW,241,0.0,0.0,72,0.00,CLR,,0.00,WeatherDisplay:10.37,2013-03-20 12:49:00,
2013-03-20 08:51:00,29.3,21.4,30.13,WSW,241,0.0,0.0,72,0.00,CLR,,0.00,WeatherDisplay:10.37,2013-03-20 12:51:00,
2013-03-20 08:52:00,29.6,21.3,30.13,WSW,241,0.0,0.0,71,0.00,CLR,,0.00,WeatherDisplay:10.37,2013-03-20 12:52:00,
2013-03-20 08:54:00,29.9,21.3,30.13,WSW,241,0.0,0.0,70,0.00,CLR,,0.00,WeatherDisplay:10.37,2013-03-20 12:54:00,
2013-03-20 08:56:00,30.6,21.3,30.13,WSW,241,0.0,0.0,68,0.00,CLR,,0.00,WeatherDisplay:10.37,2013-03-20 12:56:00,
2013-03-20 08:58:00,31.0,21.7,30.13,West,265,1.2,1.2,68,0.00,CLR,,0.00,WeatherDisplay:10.37,2013-03-20 12:58:00,
2013-03-20 08:59:00,31.1,21.1,30.13,West,265,1.2,1.2,66,0.00,CLR,,0.00,WeatherDisplay:10.37,2013-03-20 12:59:00,
2013-03-20 09:00:00,31.3,21.3,30.13,West,265,0.0,0.0,66,0.00,CLR,,0.00,WeatherDisplay:10.37,2013-03-20 13:00:00,
2013-03-20 09:01:00,31.5,19.6,30.13,West,265,1.2,1.2,61,0.00,CLR,,0.00,WeatherDisplay:10.37,2013-03-20 13:01:00,
2013-03-20 09:03:00,31.8,19.1,30.12,West,264,2.3,2.3,59,0.00,CLR,,0.00,WeatherDisplay:10.37,2013-03-20 13:03:00,
2013-03-20 09:04:00,32.0,18.5,30.12,West,264,2.3,2.3,57,0.00,CLR,,0.00,WeatherDisplay:10.37,2013-03-20 13:04:00,
2013-03-20 09:05:00,32.2,19.1,30.12,West,264,1.2,1.2,58,0.00,CLR,,0.00,WeatherDisplay:10.37,2013-03-20 13:05:00,
2013-03-20 09:07:00,32.5,17.7,30.12,WSW,248,3.5,3.5,54,0.00,CLR,,0.00,WeatherDisplay:10.37,2013-03-20 13:07:00,
2013-03-20 09:08:00,32.8,18.8,30.12,West,262,1.2,1.2,56,0.00,CLR,,0.00,WeatherDisplay:10.37,2013-03-20 13:08:00,
2013-03-20 09:09:00,33.1,19.1,30.12,WNW,296,2.3,2.3,56,0.00,CLR,,0.00,WeatherDisplay:10.37,2013-03-20 13:09:00,
2013-03-20 09:10:00,33.2,18.8,30.12,WNW,296,1.2,0.0,55,0.00,CLR,,0.00,WeatherDisplay:10.37,2013-03-20 13:10:00,
2013-03-20 09:12:00,33.6,17.8,30.12,West,271,0.0,0.0,52,0.00,CLR,,0.00,WeatherDisplay:10.37,2013-03-20 13:12:00,
2013-03-20 09:13:00,33.9,17.2,30.12,West,271,1.2,1.2,50,0.00,CLR,,0.00,WeatherDisplay:10.37,2013-03-20 13:13:00,
2013-03-20 09:14:00,34.2,17.5,30.12,West,271,0.0,0.0,50,0.00,CLR,,0.00,WeatherDisplay:10.37,2013-03-20 13:14:00,
2013-03-20 09:15:00,34.3,17.1,30.13,WSW,253,3.5,3.5,49,0.00,CLR,,0.00,WeatherDisplay:10.37,2013-03-20 13:15:00,
2013-03-20 09:17:00,34.5,16.3,30.13,West,262,2.3,2.3,47,0.00,CLR,,0.00,WeatherDisplay:10.37,2013-03-20 13:17:00,
2013-03-20 09:18:00,34.6,16.9,30.13,West,275,1.2,1.2,48,0.00,CLR,,0.00,WeatherDisplay:10.37,2013-03-20 13:18:00,
2013-03-20 09:19:00,34.7,16.5,30.13,WSW,252,4.0,4.0,47,0.00,CLR,,0.00,WeatherDisplay:10.37,2013-03-20 13:19:00,
2013-03-20 09:20:00,34.8,16.1,30.13,WSW,243,3.5,3.5,46,0.00,CLR,,0.00,WeatherDisplay:10.37,2013-03-20 13:20:00,
2013-03-20 09:22:00,34.9,16.2,30.13,West,262,2.3,2.3,46,0.00,CLR,,0.00,WeatherDisplay:10.37,2013-03-20 13:22:00,
2013-03-20 09:23:00,35.1,16.4,30.13,WSW,241,1.2,1.2,46,0.00,CLR,,0.00,WeatherDisplay:10.37,2013-03-20 13:23:00,
2013-03-20 09:24:00,35.2,16.5,30.13,WSW,240,1.2,1.2,46,0.00,CLR,,0.00,WeatherDisplay:10.37,2013-03-20 13:24:00,
2013-03-20 09:26:00,35.3,16.0,30.13,SW,232,3.5,3.5,45,0.00,CLR,,0.00,WeatherDisplay:10.37,2013-03-20 13:26:00,
2013-03-20 09:27:00,35.4,15.6,30.13,WSW,238,3.5,3.5,44,0.00,CLR,,0.00,WeatherDisplay:10.37,2013-03-20 13:27:00,
2013-03-20 09:28:00,35.4,15.6,30.13,WSW,238,3.5,3.5,44,0.00,CLR,,0.00,WeatherDisplay:10.37,2013-03-20 13:28:00,
2013-03-20 09:29:00,35.5,15.7,30.13,West,260,4.6,4.6,44,0.00,CLR,,0.00,WeatherDisplay:10.37,2013-03-20 13:29:00,
2013-03-20 09:31:00,35.6,15.8,30.13,SW,234,3.5,3.5,44,0.00,CLR,,0.00,WeatherDisplay:10.37,2013-03-20 13:31:00,
2013-03-20 09:33:00,35.7,15.9,30.13,WSW,257,3.5,3.5,44,0.00,CLR,,0.00,WeatherDisplay:10.37,2013-03-20 13:33:00,
2013-03-20 09:34:00,35.7,15.9,30.13,SW,229,3.5,3.5,44,0.00,CLR,,0.00,WeatherDisplay:10.37,2013-03-20 13:34:00,
2013-03-20 09:36:00,35.9,16.1,30.13,West,262,3.5,3.5,44,0.00,CLR,,0.00,WeatherDisplay:10.37,2013-03-20 13:36:00,
2013-03-20 09:38:00,36.1,16.3,30.13,SW,228,5.8,5.8,44,0.00,CLR,,0.00,WeatherDisplay:10.37,2013-03-20 13:38:00,
2013-03-20 09:39:00,36.2,15.8,30.13,SW,225,3.5,3.5,43,0.00,CLR,,0.00,WeatherDisplay:10.37,2013-03-20 13:39:00,
2013-03-20 09:40:00,36.2,15.8,30.12,WNW,300,4.0,4.0,43,0.00,CLR,,0.00,WeatherDisplay:10.37,2013-03-20 13:40:00,
2013-03-20 09:41:00,36.3,15.4,30.12,West,264,4.6,4.6,42,0.00,CLR,,0.00,WeatherDisplay:10.37,2013-03-20 13:41:00,
2013-03-20 09:43:00,36.3,16.4,30.12,West,262,3.5,3.5,44,0.00,CLR,,0.00,WeatherDisplay:10.37,2013-03-20 13:43:00,
2013-03-20 09:44:00,36.4,16.0,30.12,WSW,252,3.5,3.5,43,0.00,CLR,,0.00,WeatherDisplay:10.37,2013-03-20 13:44:00,
2013-03-20 09:45:00,36.4,15.5,30.12,West,260,3.5,3.5,42,0.00,CLR,,0.00,WeatherDisplay:10.37,2013-03-20 13:45:00,
2013-03-20 09:46:00,36.4,16.0,30.12,WNW,295,4.6,4.6,43,0.00,CLR,,0.00,WeatherDisplay:10.37,2013-03-20 13:46:00,
2013-03-20 09:48:00,36.6,16.2,30.12,WSW,253,3.5,3.5,43,0.00,CLR,,0.00,WeatherDisplay:10.37,2013-03-20 13:48:00,
2013-03-20 09:49:00,36.6,16.2,30.12,WSW,248,5.0,5.0,43,0.00,CLR,,0.00,WeatherDisplay:10.37,2013-03-20 13:49:00,
2013-03-20 09:50:00,36.7,16.3,30.12,WSW,253,4.6,4.6,43,0.00,CLR,,0.00,WeatherDisplay:10.37,2013-03-20 13:50:00,
2013-03-20 09:52:00,36.8,15.8,30.12,West,280,2.3,2.3,42,0.00,CLR,,0.00,WeatherDisplay:10.37,2013-03-20 13:52:00,
2013-03-20 09:53:00,37.0,16.5,30.12,NW,308,4.6,4.6,43,0.00,CLR,,0.00,WeatherDisplay:10.37,2013-03-20 13:53:00,
2013-03-20 09:54:00,37.1,16.1,30.12,WNW,290,8.1,8.1,42,0.00,CLR,,0.00,WeatherDisplay:10.37,2013-03-20 13:54:00,
2013-03-20 09:55:00,37.1,16.1,30.12,West,281,4.6,4.6,42,0.00,CLR,,0.00,WeatherDisplay:10.37,2013-03-20 13:55:00,
2013-03-20 09:57:00,37.2,16.7,30.12,WSW,242,3.5,3.5,43,0.00,CLR,,0.00,WeatherDisplay:10.37,2013-03-20 13:57:00,
2013-03-20 09:58:00,37.3,16.3,30.12,West,266,3.5,3.5,42,0.00,CLR,,0.00,WeatherDisplay:10.37,2013-03-20 13:58:00,
2013-03-20 09:59:00,37.3,15.7,30.12,SW,229,3.5,3.5,41,0.00,CLR,,0.00,WeatherDisplay:10.37,2013-03-20 13:59:00,
2013-03-20 10:00:00,37.3,15.7,30.12,WSW,253,3.5,3.5,41,0.00,CLR,,0.00,WeatherDisplay:10.37,2013-03-20 14:00:00,
2013-03-20 10:02:00,37.5,15.9,30.12,West,270,3.5,3.5,41,0.00,CLR,,0.00,WeatherDisplay:10.37,2013-03-20 14:02:00,
2013-03-20 10:04:00,37.6,17.1,30.12,WSW,252,3.5,3.5,43,0.00,CLR,,0.00,WeatherDisplay:10.37,2013-03-20 14:04:00,
2013-03-20 10:06:00,37.8,16.7,30.12,West,265,4.0,4.0,42,0.00,CLR,,0.00,WeatherDisplay:10.37,2013-03-20 14:06:00,
2013-03-20 10:07:00,37.9,16.3,30.12,WSW,241,6.9,6.9,41,0.00,CLR,,0.00,WeatherDisplay:10.37,2013-03-20 14:07:00,
2013-03-20 10:09:00,37.9,16.8,30.12,WSW,249,4.6,4.6,42,0.00,CLR,,0.00,WeatherDisplay:10.37,2013-03-20 14:09:00,
2013-03-20 10:12:00,38.0,16.9,30.12,WSW,242,6.9,6.9,42,0.00,CLR,,0.00,WeatherDisplay:10.37,2013-03-20 14:12:00,
2013-03-20 10:13:00,38.1,17.5,30.12,WSW,257,6.9,6.9,43,0.00,CLR,,0.00,WeatherDisplay:10.37,2013-03-20 14:13:00,
2013-03-20 10:14:00,38.2,16.5,30.12,West,260,4.6,4.6,41,0.00,CLR,,0.00,WeatherDisplay:10.37,2013-03-20 14:14:00,
2013-03-20 10:15:00,38.3,17.2,30.12,WSW,243,3.5,3.5,42,0.00,CLR,,0.00,WeatherDisplay:10.37,2013-03-20 14:15:00,
2013-03-20 10:17:00,38.4,17.3,30.12,West,269,6.9,6.9,42,0.00,CLR,,0.00,WeatherDisplay:10.37,2013-03-20 14:17:00,
2013-03-20 10:19:00,38.5,16.2,30.12,WSW,246,3.5,3.5,40,0.00,CLR,,0.00,WeatherDisplay:10.37,2013-03-20 14:19:00,
2013-03-20 10:20:00,38.6,16.9,30.12,West,260,3.5,3.5,41,0.00,CLR,,0.00,WeatherDisplay:10.37,2013-03-20 14:20:00,
2013-03-20 10:22:00,38.8,17.1,30.12,WSW,250,8.1,8.1,41,0.00,CLR,,0.00,WeatherDisplay:10.37,2013-03-20 14:22:00,
2013-03-20 10:24:00,38.8,15.3,30.11,WSW,253,6.0,6.0,38,0.00,CLR,,0.00,WeatherDisplay:10.37,2013-03-20 14:24:00,
2013-03-20 10:25:00,38.8,14.7,30.11,WSW,252,5.0,10.0,37,0.00,CLR,,0.00,WeatherDisplay:10.37,2013-03-20 14:25:00,
2013-03-20 10:27:00,38.9,14.8,30.11,West,264,11.0,11.0,37,0.00,CLR,,0.00,WeatherDisplay:10.37,2013-03-20 14:27:00,
2013-03-20 10:29:00,38.9,14.8,30.11,West,280,12.7,12.7,37,0.00,CLR,,0.00,WeatherDisplay:10.37,2013-03-20 14:29:00,
2013-03-20 10:30:00,38.9,14.8,30.12,SSW,209,10.4,10.4,37,0.00,CLR,,0.00,WeatherDisplay:10.37,2013-03-20 14:30:00,
2013-03-20 10:32:00,38.9,14.2,30.11,WNW,298,11.5,11.5,36,0.00,CLR,,0.00,WeatherDisplay:10.37,2013-03-20 14:32:00,
2013-03-20 10:35:00,38.9,13.5,30.11,West,260,10.4,10.4,35,0.00,CLR,,0.00,WeatherDisplay:10.37,2013-03-20 14:35:00,
2013-03-20 10:37:00,39.1,13.1,30.11,WNW,288,8.1,8.1,34,0.00,CLR,,0.00,WeatherDisplay:10.37,2013-03-20 14:37:00,
2013-03-20 10:40:00,39.2,14.4,30.12,WSW,251,9.2,9.2,36,0.00,CLR,,0.00,WeatherDisplay:10.37,2013-03-20 14:40:00,
2013-03-20 10:41:00,39.2,14.4,30.11,WNW,298,7.0,7.0,36,0.00,CLR,,0.00,WeatherDisplay:10.37,2013-03-20 14:41:00,
2013-03-20 10:42:00,39.2,14.4,30.11,WNW,289,16.1,16.1,36,0.00,CLR,,0.00,WeatherDisplay:10.37,2013-03-20 14:42:00,
2013-03-20 10:45:00,39.0,14.3,30.11,West,274,6.9,6.9,36,0.00,CLR,,0.00,WeatherDisplay:10.37,2013-03-20 14:45:00,
2013-03-20 10:46:00,39.1,15.6,30.11,WSW,245,9.0,9.0,38,0.00,CLR,,0.00,WeatherDisplay:10.37,2013-03-20 14:46:00,
2013-03-20 10:47:00,39.2,15.1,30.11,WSW,255,9.2,9.2,37,0.00,CLR,,0.00,WeatherDisplay:10.37,2013-03-20 14:47:00,
2013-03-20 10:50:00,39.7,16.1,30.11,West,278,6.9,6.9,38,0.00,CLR,,0.00,WeatherDisplay:10.37,2013-03-20 14:50:00,
2013-03-20 10:52:00,39.6,14.2,30.11,WNW,287,8.1,8.1,35,0.00,CLR,,0.00,WeatherDisplay:10.37,2013-03-20 14:52:00,
2013-03-20 10:53:00,39.6,15.4,30.11,West,276,8.1,8.1,37,0.00,CLR,,0.00,WeatherDisplay:10.37,2013-03-20 14:53:00,
2013-03-20 10:55:00,39.9,16.3,30.11,WSW,246,6.9,6.9,38,0.00,CLR,,0.00,WeatherDisplay:10.37,2013-03-20 14:55:00,
2013-03-20 10:57:00,39.9,15.1,30.11,WNW,292,3.5,3.5,36,0.00,CLR,,0.00,WeatherDisplay:10.37,2013-03-20 14:57:00,
2013-03-20 10:58:00,40.0,17.0,30.11,WSW,250,6.9,6.9,39,0.00,CLR,,0.00,WeatherDisplay:10.37,2013-03-20 14:58:00,
2013-03-20 11:00:00,40.2,16.0,30.11,WSW,247,10.4,10.4,37,0.00,CLR,,0.00,WeatherDisplay:10.37,2013-03-20 15:00:00,
2013-03-20 11:02:00,40.2,15.3,30.11,SW,226,9.2,9.2,36,0.00,CLR,,0.00,WeatherDisplay:10.37,2013-03-20 15:02:00,
2013-03-20 11:03:00,40.2,14.7,30.11,West,260,9.2,9.2,35,0.00,CLR,,0.00,WeatherDisplay:10.37,2013-03-20 15:03:00,
2013-03-20 11:05:00,40.3,14.8,30.10,WSW,255,7.0,7.0,35,0.00,CLR,,0.00,WeatherDisplay:10.37,2013-03-20 15:05:00,
2013-03-20 11:07:00,40.5,16.2,30.10,West,260,10.4,10.4,37,0.00,CLR,,0.00,WeatherDisplay:10.37,2013-03-20 15:07:00,
2013-03-20 11:08:00,40.6,16.3,30.10,WSW,238,8.1,8.1,37,0.00,CLR,,0.00,WeatherDisplay:10.37,2013-03-20 15:08:00,
2013-03-20 11:12:00,40.7,15.1,30.10,WNW,299,4.0,4.0,35,0.00,CLR,,0.00,WeatherDisplay:10.37,2013-03-20 15:12:00,
2013-03-20 11:13:00,40.9,16.6,30.10,SW,229,5.8,5.8,37,0.00,CLR,,0.00,WeatherDisplay:10.37,2013-03-20 15:13:00,
2013-03-20 11:17:00,41.2,16.2,30.09,West,263,11.5,11.5,36,0.00,CLR,,0.00,WeatherDisplay:10.37,2013-03-20 15:17:00,
2013-03-20 11:18:00,41.1,14.8,30.10,WSW,245,10.4,10.4,34,0.00,CLR,,0.00,WeatherDisplay:10.37,2013-03-20 15:18:00,
2013-03-20 11:19:00,41.2,15.6,30.10,WSW,255,12.7,12.7,35,0.00,CLR,,0.00,WeatherDisplay:10.37,2013-03-20 15:19:00,
2013-03-20 11:22:00,41.3,13.6,30.10,WSW,243,5.8,5.8,32,0.00,CLR,,0.00,WeatherDisplay:10.37,2013-03-20 15:22:00,
2013-03-20 11:23:00,41.3,14.3,30.10,WSW,253,5.0,5.0,33,0.00,CLR,,0.00,WeatherDisplay:10.37,2013-03-20 15:23:00,
2013-03-20 11:25:00,41.3,14.3,30.10,SW,234,5.8,5.8,33,0.00,CLR,,0.00,WeatherDisplay:10.37,2013-03-20 15:25:00,
2013-03-20 11:27:00,41.6,17.8,30.10,WSW,249,5.0,5.0,38,0.00,CLR,,0.00,WeatherDisplay:10.37,2013-03-20 15:27:00,
2013-03-20 11:28:00,41.7,17.9,30.10,WSW,253,5.0,5.0,38,0.00,CLR,,0.00,WeatherDisplay:10.37,2013-03-20 15:28:00,
2013-03-20 11:30:00,41.8,14.8,30.10,WSW,243,4.6,4.6,33,0.00,CLR,,0.00,WeatherDisplay:10.37,2013-03-20 15:30:00,
2013-03-20 11:33:00,41.7,14.0,30.10,West,264,14.0,14.0,32,0.00,CLR,,0.00,WeatherDisplay:10.37,2013-03-20 15:33:00,
2013-03-20 11:36:00,41.6,13.9,30.10,WSW,241,8.1,8.1,32,0.00,CLR,,0.00,WeatherDisplay:10.37,2013-03-20 15:36:00,
2013-03-20 11:38:00,41.6,14.6,30.10,West,271,10.4,10.4,33,0.00,CLR,,0.00,WeatherDisplay:10.37,2013-03-20 15:38:00,
2013-03-20 11:39:00,41.6,13.9,30.10,WSW,251,5.8,5.8,32,0.00,CLR,,0.00,WeatherDisplay:10.37,2013-03-20 15:39:00,
2013-03-20 11:41:00,41.9,17.5,30.09,SW,235,3.5,3.5,37,0.00,CLR,,0.00,WeatherDisplay:10.37,2013-03-20 15:41:00,
2013-03-20 11:43:00,42.2,15.1,30.09,WSW,248,6.0,6.0,33,0.00,CLR,,0.00,WeatherDisplay:10.37,2013-03-20 15:43:00,
2013-03-20 11:44:00,42.3,15.9,30.09,SW,227,9.2,9.2,34,0.00,CLR,,0.00,WeatherDisplay:10.37,2013-03-20 15:44:00,
2013-03-20 11:46:00,42.3,14.5,30.09,West,260,9.2,9.2,32,0.00,CLR,,0.00,WeatherDisplay:10.37,2013-03-20 15:46:00,
2013-03-20 11:48:00,42.2,15.8,30.09,NW,326,10.4,10.4,34,0.00,CLR,,0.00,WeatherDisplay:10.37,2013-03-20 15:48:00,
2013-03-20 11:49:00,42.3,16.6,30.09,WSW,249,13.8,13.8,35,0.00,CLR,,0.00,WeatherDisplay:10.37,2013-03-20 15:49:00,
2013-03-20 11:52:00,42.6,16.8,30.09,NW,310,6.9,6.9,35,0.00,CLR,,0.00,WeatherDisplay:10.37,2013-03-20 15:52:00,
2013-03-20 11:53:00,42.8,17.0,30.09,West,264,11.5,11.5,35,0.00,CLR,,0.00,WeatherDisplay:10.37,2013-03-20 15:53:00,
2013-03-20 11:54:00,42.9,17.1,30.09,WSW,253,9.2,9.2,35,0.00,CLR,,0.00,WeatherDisplay:10.37,2013-03-20 15:54:00,
2013-03-20 11:57:00,43.1,16.6,30.08,WNW,297,9.2,9.2,34,0.00,CLR,,0.00,WeatherDisplay:10.37,2013-03-20 15:57:00,
2013-03-20 11:59:00,43.0,15.1,30.08,West,265,8.1,8.1,32,0.00,CLR,,0.00,WeatherDisplay:10.37,2013-03-20 15:59:00,
2013-03-20 12:00:00,43.0,15.1,30.08,West,264,3.0,12.0,32,0.00,CLR,,0.00,WeatherDisplay:10.37,2013-03-20 16:00:00,
2013-03-20 12:02:00,42.9,15.7,30.08,WSW,257,7.0,7.0,33,0.00,CLR,,0.00,WeatherDisplay:10.37,2013-03-20 16:02:00,
2013-03-20 12:04:00,42.9,16.4,30.08,West,276,9.2,9.2,34,0.00,CLR,,0.00,WeatherDisplay:10.37,2013-03-20 16:04:00,
2013-03-20 12:05:00,42.9,16.4,30.08,West,275,6.0,9.0,34,0.00,CLR,,0.00,WeatherDisplay:10.37,2013-03-20 16:05:00,
2013-03-20 12:07:00,42.9,15.0,30.08,SSW,198,16.1,16.1,32,0.00,CLR,,0.00,WeatherDisplay:10.37,2013-03-20 16:07:00,
2013-03-20 12:09:00,42.9,15.7,30.08,WSW,249,8.1,8.1,33,0.00,CLR,,0.00,WeatherDisplay:10.37,2013-03-20 16:09:00,
2013-03-20 12:10:00,43.0,16.5,30.07,WSW,239,10.4,10.4,34,0.00,CLR,,0.00,WeatherDisplay:10.37,2013-03-20 16:10:00,
2013-03-20 12:12:00,43.0,15.1,30.08,WSW,241,13.8,13.8,32,0.00,CLR,,0.00,WeatherDisplay:10.37,2013-03-20 16:12:00,
2013-03-20 12:14:00,43.1,15.9,30.08,WSW,241,11.5,11.5,33,0.00,CLR,,0.00,WeatherDisplay:10.37,2013-03-20 16:14:00,
2013-03-20 12:15:00,43.2,16.0,30.07,WSW,245,9.2,9.2,33,0.00,CLR,,0.00,WeatherDisplay:10.37,2013-03-20 16:15:00,
2013-03-20 12:18:00,43.3,16.8,30.07,WSW,238,6.9,6.9,34,0.00,CLR,,0.00,WeatherDisplay:10.37,2013-03-20 16:18:00,
2013-03-20 12:19:00,43.6,17.7,30.07,NW,306,13.0,13.0,35,0.00,CLR,,0.00,WeatherDisplay:10.37,2013-03-20 16:19:00,
2013-03-20 12:21:00,43.8,16.5,30.07,SW,224,12.7,12.7,33,0.00,CLR,,0.00,WeatherDisplay:10.37,2013-03-20 16:21:00,
2013-03-20 12:23:00,43.8,17.2,30.07,WNW,285,13.0,13.0,34,0.00,CLR,,0.00,WeatherDisplay:10.37,2013-03-20 16:23:00,
2013-03-20 12:24:00,43.9,16.6,30.07,SW,233,17.3,17.3,33,0.00,CLR,,0.00,WeatherDisplay:10.37,2013-03-20 16:24:00,
2013-03-20 12:26:00,43.9,16.6,30.07,SW,217,9.2,9.2,33,0.00,CLR,,0.00,WeatherDisplay:10.37,2013-03-20 16:26:00,
2013-03-20 12:27:00,44.0,15.3,30.07,West,261,9.2,9.2,31,0.00,CLR,,0.00,WeatherDisplay:10.37,2013-03-20 16:27:00,
2013-03-20 12:28:00,44.0,16.0,30.07,WNW,282,8.1,8.1,32,0.00,CLR,,0.00,WeatherDisplay:10.37,2013-03-20 16:28:00,
2013-03-20 12:29:00,44.1,16.8,30.07,West,279,8.1,8.1,33,0.00,CLR,,0.00,WeatherDisplay:10.37,2013-03-20 16:29:00,
2013-03-20 12:31:00,44.0,15.3,30.06,WSW,255,16.1,16.1,31,0.00,CLR,,0.00,WeatherDisplay:10.37,2013-03-20 16:31:00,
2013-03-20 12:32:00,43.9,15.2,30.07,WSW,250,9.2,9.2,31,0.00,CLR,,0.00,WeatherDisplay:10.37,2013-03-20 16:32:00,
2013-03-20 12:33:00,43.9,15.9,30.07,WSW,250,9.2,9.2,32,0.00,CLR,,0.00,WeatherDisplay:10.37,2013-03-20 16:33:00,
2013-03-20 12:35:00,43.9,15.9,30.06,West,265,5.8,5.8,32,0.00,CLR,,0.00,WeatherDisplay:10.37,2013-03-20 16:35:00,
2013-03-20 12:37:00,44.4,19.1,30.07,NW,316,8.1,8.1,36,0.00,CLR,,0.00,WeatherDisplay:10.37,2013-03-20 16:37:00,
2013-03-20 12:38:00,44.5,18.5,30.07,West,276,8.1,8.1,35,0.00,CLR,,0.00,WeatherDisplay:10.37,2013-03-20 16:38:00,
2013-03-20 12:39:00,44.7,15.9,30.07,SW,234,11.5,11.5,31,0.00,CLR,,0.00,WeatherDisplay:10.37,2013-03-20 16:39:00,
2013-03-20 12:40:00,44.6,15.0,30.06,WSW,257,11.5,11.5,30,0.00,CLR,,0.00,WeatherDisplay:10.37,2013-03-20 16:40:00,
2013-03-20 12:42:00,44.3,15.5,30.06,WNW,296,13.8,13.8,31,0.00,CLR,,0.00,WeatherDisplay:10.37,2013-03-20 16:42:00,
2013-03-20 12:43:00,44.2,15.4,30.07,SW,224,13.8,13.8,31,0.00,CLR,,0.00,WeatherDisplay:10.37,2013-03-20 16:43:00,
2013-03-20 12:44:00,44.2,16.9,30.07,West,260,9.2,9.2,33,0.00,CLR,,0.00,WeatherDisplay:10.37,2013-03-20 16:44:00,
2013-03-20 12:45:00,44.3,16.3,30.06,WSW,241,9.2,9.2,32,0.00,CLR,,0.00,WeatherDisplay:10.37,2013-03-20 16:45:00,
2013-03-20 12:48:00,44.6,16.5,30.06,WSW,243,9.0,9.0,32,0.00,CLR,,0.00,WeatherDisplay:10.37,2013-03-20 16:48:00,
2013-03-20 12:49:00,44.5,15.7,30.06,WSW,258,14.0,14.0,31,0.00,CLR,,0.00,WeatherDisplay:10.37,2013-03-20 16:49:00,
2013-03-20 12:50:00,44.3,15.5,30.06,SW,219,16.1,16.1,31,0.00,CLR,,0.00,WeatherDisplay:10.37,2013-03-20 16:50:00,
2013-03-20 12:53:00,44.3,16.3,30.06,SW,235,9.2,9.2,32,0.00,CLR,,0.00,WeatherDisplay:10.37,2013-03-20 16:53:00,
2013-03-20 12:54:00,44.4,15.6,30.06,SW,234,12.7,12.7,31,0.00,CLR,,0.00,WeatherDisplay:10.37,2013-03-20 16:54:00,
2013-03-20 12:55:00,44.4,17.7,30.06,SW,236,13.8,13.8,34,0.00,CLR,,0.00,WeatherDisplay:10.37,2013-03-20 16:55:00,
2013-03-20 12:58:00,44.8,17.4,30.06,WNW,286,11.5,11.5,33,0.00,CLR,,0.00,WeatherDisplay:10.37,2013-03-20 16:58:00,
2013-03-20 12:59:00,44.9,17.5,30.05,WNW,288,8.1,8.1,33,0.00,CLR,,0.00,WeatherDisplay:10.37,2013-03-20 16:59:00,
2013-03-20 13:00:00,45.1,18.4,30.05,West,276,10.4,10.4,34,0.00,CLR,,0.00,WeatherDisplay:10.37,2013-03-20 17:00:00,
2013-03-20 13:03:00,45.0,16.1,30.05,NW,313,13.8,13.8,31,0.00,CLR,,0.00,WeatherDisplay:10.37,2013-03-20 17:03:00,
2013-03-20 13:04:00,45.0,18.3,30.05,WSW,243,11.5,11.5,34,0.00,CLR,,0.00,WeatherDisplay:10.37,2013-03-20 17:04:00,
2013-03-20 13:05:00,45.0,18.3,30.05,NNW,344,11.5,11.5,34,0.00,CLR,,0.00,WeatherDisplay:10.37,2013-03-20 17:05:00,
2013-03-20 13:06:00,45.2,18.5,30.05,West,266,11.5,11.5,34,0.00,CLR,,0.00,WeatherDisplay:10.37,2013-03-20 17:06:00,
2013-03-20 13:08:00,45.8,19.0,30.05,WNW,292,11.5,11.5,34,0.00,CLR,,0.00,WeatherDisplay:10.37,2013-03-20 17:08:00,
2013-03-20 13:09:00,45.9,18.4,30.05,WSW,253,8.1,8.1,33,0.00,CLR,,0.00,WeatherDisplay:10.37,2013-03-20 17:09:00,
2013-03-20 13:10:00,46.0,18.5,30.05,West,264,10.0,10.0,33,0.00,CLR,,0.00,WeatherDisplay:10.37,2013-03-20 17:10:00,
2013-03-20 13:11:00,46.1,17.8,30.05,WSW,238,11.5,11.5,32,0.00,CLR,,0.00,WeatherDisplay:10.37,2013-03-20 17:11:00,
2013-03-20 13:13:00,46.0,16.3,30.05,WSW,249,11.5,11.5,30,0.00,CLR,,0.00,WeatherDisplay:10.37,2013-03-20 17:13:00,
2013-03-20 13:14:00,45.8,15.3,30.04,SW,219,11.0,11.0,29,0.00,CLR,,0.00,WeatherDisplay:10.37,2013-03-20 17:14:00,
2013-03-20 13:15:00,45.7,15.2,30.05,West,276,13.8,13.8,29,0.00,CLR,,0.00,WeatherDisplay:10.37,2013-03-20 17:15:00,
2013-03-20 13:17:00,45.6,15.9,30.04,NW,312,11.5,11.5,30,0.00,CLR,,0.00,WeatherDisplay:10.37,2013-03-20 17:17:00,
2013-03-20 13:19:00,45.7,18.2,30.04,WSW,255,12.7,12.7,33,0.00,CLR,,0.00,WeatherDisplay:10.37,2013-03-20 17:19:00,
2013-03-20 13:20:00,45.8,17.6,30.04,West,271,6.9,6.9,32,0.00,CLR,,0.00,WeatherDisplay:10.37,2013-03-20 17:20:00,
2013-03-20 13:21:00,45.9,17.7,30.04,West,261,5.8,5.8,32,0.00,CLR,,0.00,WeatherDisplay:10.37,2013-03-20 17:21:00,
2013-03-20 13:22:00,46.3,18.0,30.04,WSW,251,3.5,3.5,32,0.00,CLR,,0.00,WeatherDisplay:10.37,2013-03-20 17:22:00,
2013-03-20 13:24:00,46.5,19.6,30.03,NW,305,10.4,10.4,34,0.00,CLR,,0.00,WeatherDisplay:10.37,2013-03-20 17:24:00,
2013-03-20 13:25:00,46.5,19.6,30.04,WSW,246,9.2,9.2,34,0.00,CLR,,0.00,WeatherDisplay:10.37,2013-03-20 17:25:00,
2013-03-20 13:26:00,46.5,19.6,30.04,West,260,13.8,13.8,34,0.00,CLR,,0.00,WeatherDisplay:10.37,2013-03-20 17:26:00,
2013-03-20 13:28:00,46.1,16.3,30.03,North,350,15.0,15.0,30,0.00,CLR,,0.00,WeatherDisplay:10.37,2013-03-20 17:28:00,
2013-03-20 13:30:00,45.9,17.7,30.03,West,273,7.0,16.0,32,0.00,CLR,,0.00,WeatherDisplay:10.37,2013-03-20 17:30:00,
2013-03-20 13:31:00,45.9,17.7,30.04,WSW,244,8.1,8.1,32,0.00,CLR,,0.00,WeatherDisplay:10.37,2013-03-20 17:31:00,
2013-03-20 13:33:00,46.0,19.2,30.03,WSW,251,4.6,4.6,34,0.00,CLR,,0.00,WeatherDisplay:10.37,2013-03-20 17:33:00,
2013-03-20 13:35:00,46.3,18.7,30.03,WSW,241,3.5,3.5,33,0.00,CLR,,0.00,WeatherDisplay:10.37,2013-03-20 17:35:00,
2013-03-20 13:36:00,46.4,17.4,30.03,WSW,256,10.0,10.0,31,0.00,CLR,,0.00,WeatherDisplay:10.37,2013-03-20 17:36:00,
2013-03-20 13:37:00,46.5,18.9,30.03,SW,217,12.7,12.7,33,0.00,CLR,,0.00,WeatherDisplay:10.37,2013-03-20 17:37:00,
2013-03-20 13:39:00,46.5,16.7,30.03,West,272,8.1,8.1,30,0.00,CLR,,0.00,WeatherDisplay:10.37,2013-03-20 17:39:00,
2013-03-20 13:40:00,46.5,16.7,30.03,WSW,253,5.0,15.0,30,0.00,CLR,,0.00,WeatherDisplay:10.37,2013-03-20 17:40:00,
2013-03-20 13:41:00,46.5,16.7,30.03,WSW,258,13.0,13.0,30,0.00,CLR,,0.00,WeatherDisplay:10.37,2013-03-20 17:41:00,
2013-03-20 13:42:00,46.3,15.7,30.02,WNW,289,13.8,13.8,29,0.00,CLR,,0.00,WeatherDisplay:10.37,2013-03-20 17:42:00,
2013-03-20 13:44:00,46.3,18.0,30.02,WSW,255,13.8,13.8,32,0.00,CLR,,0.00,WeatherDisplay:10.37,2013-03-20 17:44:00,
2013-03-20 13:45:00,46.3,18.0,30.02,WSW,255,10.4,10.4,32,0.00,CLR,,0.00,WeatherDisplay:10.37,2013-03-20 17:45:00,
2013-03-20 13:47:00,46.5,16.7,30.02,WSW,254,11.5,11.5,30,0.00,CLR,,0.00,WeatherDisplay:10.37,2013-03-20 17:47:00,
2013-03-20 13:49:00,46.6,17.5,30.02,WSW,254,17.3,17.3,31,0.00,CLR,,0.00,WeatherDisplay:10.37,2013-03-20 17:49:00,
2013-03-20 13:50:00,46.5,17.4,30.02,WSW,257,13.8,13.8,31,0.00,CLR,,0.00,WeatherDisplay:10.37,2013-03-20 17:50:00,
2013-03-20 13:52:00,46.6,19.0,30.02,WSW,256,10.4,10.4,33,0.00,CLR,,0.00,WeatherDisplay:10.37,2013-03-20 17:52:00,
2013-03-20 13:55:00,46.5,15.9,30.01,West,273,9.2,9.2,29,0.00,CLR,,0.00,WeatherDisplay:10.37,2013-03-20 17:55:00,
2013-03-20 13:57:00,46.6,16.0,30.01,WNW,294,13.8,13.8,29,0.00,CLR,,0.00,WeatherDisplay:10.37,2013-03-20 17:57:00,
2013-03-20 14:00:00,46.4,17.4,30.01,WNW,283,9.2,9.2,31,0.00,CLR,,0.00,WeatherDisplay:10.37,2013-03-20 18:00:00,
2013-03-20 14:02:00,46.4,17.4,30.01,West,261,8.1,8.1,31,0.00,CLR,,0.00,WeatherDisplay:10.37,2013-03-20 18:02:00,
2013-03-20 14:05:00,46.5,15.9,30.01,SW,222,15.0,15.0,29,0.00,CLR,,0.00,WeatherDisplay:10.37,2013-03-20 18:05:00,
2013-03-20 14:07:00,46.5,16.7,30.01,WSW,239,8.1,8.1,30,0.00,CLR,,0.00,WeatherDisplay:10.37,2013-03-20 18:07:00,
2013-03-20 14:08:00,46.7,19.1,30.01,WSW,253,4.6,4.6,33,0.00,CLR,,0.00,WeatherDisplay:10.37,2013-03-20 18:08:00,
2013-03-20 14:10:00,47.2,20.2,30.00,WSW,249,6.0,6.0,34,0.00,CLR,,0.00,WeatherDisplay:10.37,2013-03-20 18:10:00,
2013-03-20 14:12:00,47.3,19.6,30.00,WNW,290,11.5,11.5,33,0.00,CLR,,0.00,WeatherDisplay:10.37,2013-03-20 18:12:00,
2013-03-20 14:13:00,47.4,19.7,30.00,West,276,10.0,10.0,33,0.00,CLR,,0.00,WeatherDisplay:10.37,2013-03-20 18:13:00,
2013-03-20 14:15:00,47.4,19.0,30.00,WSW,253,11.5,11.5,32,0.00,CLR,,0.00,WeatherDisplay:10.37,2013-03-20 18:15:00,
2013-03-20 14:18:00,47.5,16.0,30.00,WSW,250,9.2,9.2,28,0.00,CLR,,0.00,WeatherDisplay:10.37,2013-03-20 18:18:00,
2013-03-20 14:20:00,47.4,16.7,29.99,WSW,248,10.4,10.4,29,0.00,CLR,,0.00,WeatherDisplay:10.37,2013-03-20 18:20:00,
2013-03-20 14:23:00,47.4,15.9,30.00,SW,229,17.3,17.3,28,0.00,CLR,,0.00,WeatherDisplay:10.37,2013-03-20 18:23:00,
2013-03-20 14:24:00,47.5,16.8,30.00,WSW,258,17.3,17.3,29,0.00,CLR,,0.00,WeatherDisplay:10.37,2013-03-20 18:24:00,
2013-03-20 14:25:00,47.5,15.1,30.00,WSW,243,12.7,12.7,27,0.00,CLR,,0.00,WeatherDisplay:10.37,2013-03-20 18:25:00,
2013-03-20 14:28:00,47.6,15.2,29.99,West,267,12.0,12.0,27,0.00,CLR,,0.00,WeatherDisplay:10.37,2013-03-20 18:28:00,
2013-03-20 14:29:00,47.6,15.2,30.00,WSW,243,18.4,18.4,27,0.00,CLR,,0.00,WeatherDisplay:10.37,2013-03-20 18:29:00,
2013-03-20 14:30:00,47.6,16.1,30.00,West,267,13.8,13.8,28,0.00,CLR,,0.00,WeatherDisplay:10.37,2013-03-20 18:30:00,
2013-03-20 14:33:00,47.5,16.0,29.99,WSW,256,11.5,11.5,28,0.00,CLR,,0.00,WeatherDisplay:10.37,2013-03-20 18:33:00,
2013-03-20 14:34:00,47.5,16.0,29.99,West,264,10.4,10.4,28,0.00,CLR,,0.00,WeatherDisplay:10.37,2013-03-20 18:34:00,
2013-03-20 14:35:00,47.6,19.2,29.99,SW,223,10.0,10.0,32,0.00,CLR,,0.00,WeatherDisplay:10.37,2013-03-20 18:35:00,
2013-03-20 14:39:00,47.5,16.0,29.98,West,264,15.0,15.0,28,0.00,CLR,,0.00,WeatherDisplay:10.37,2013-03-20 18:39:00,
2013-03-20 14:42:00,47.5,16.8,29.98,WSW,255,18.4,18.4,29,0.00,,,0.00,WeatherDisplay:10.37,2013-03-20 18:42:00,
2013-03-20 14:44:00,47.7,17.7,29.98,WSW,240,11.5,11.5,30,0.00,,,0.00,WeatherDisplay:10.37,2013-03-20 18:44:00,
2013-03-20 14:47:00,48.0,18.0,29.98,West,267,9.2,9.2,30,0.00,,,0.00,WeatherDisplay:10.37,2013-03-20 18:47:00,
2013-03-20 14:49:00,48.1,16.5,29.98,WSW,255,13.8,13.8,28,0.00,,,0.00,WeatherDisplay:10.37,2013-03-20 18:49:00,
2013-03-20 14:50:00,48.1,16.5,29.98,WSW,256,9.2,9.2,28,0.00,,,0.00,WeatherDisplay:10.37,2013-03-20 18:50:00,
2013-03-20 14:52:00,48.0,15.6,29.97,WSW,244,11.5,11.5,27,0.00,,,0.00,WeatherDisplay:10.37,2013-03-20 18:52:00,
2013-03-20 14:54:00,48.0,16.4,29.97,WSW,241,9.2,9.2,28,0.00,,,0.00,WeatherDisplay:10.37,2013-03-20 18:54:00,
2013-03-20 14:55:00,48.0,16.4,29.97,WSW,245,19.6,19.6,28,0.00,,,0.00,WeatherDisplay:10.37,2013-03-20 18:55:00,
2013-03-20 14:57:00,48.0,16.4,29.97,WSW,241,10.4,10.4,28,0.00,,,0.00,WeatherDisplay:10.37,2013-03-20 18:57:00,
2013-03-20 14:59:00,48.5,18.4,29.97,SSW,211,11.5,11.5,30,0.00,,,0.00,WeatherDisplay:10.37,2013-03-20 18:59:00,
2013-03-20 15:00:00,48.7,19.4,29.97,WSW,257,12.0,12.0,31,0.00,,,0.00,WeatherDisplay:10.37,2013-03-20 19:00:00,
2013-03-20 15:02:00,48.5,16.0,29.97,NW,306,16.1,16.1,27,0.00,,,0.00,WeatherDisplay:10.37,2013-03-20 19:02:00,
2013-03-20 15:05:00,48.2,14.9,29.96,NNW,327,18.4,18.4,26,0.00,,,0.00,WeatherDisplay:10.37,2013-03-20 19:05:00,
2013-03-20 15:06:00,48.2,16.6,29.96,WNW,282,12.7,12.7,28,0.00,,,0.00,WeatherDisplay:10.37,2013-03-20 19:06:00,
2013-03-20 15:07:00,48.3,17.5,29.96,West,262,12.7,12.7,29,0.00,,,0.00,WeatherDisplay:10.37,2013-03-20 19:07:00,
2013-03-20 15:10:00,48.3,15.8,29.96,WSW,254,15.0,15.0,27,0.00,,,0.00,WeatherDisplay:10.37,2013-03-20 19:10:00,
2013-03-20 15:12:00,48.1,16.5,29.96,WSW,256,11.5,11.5,28,0.00,,,0.00,WeatherDisplay:10.37,2013-03-20 19:12:00,
2013-03-20 15:15:00,48.1,15.6,29.95,WNW,294,15.0,15.0,27,0.00,,,0.00,WeatherDisplay:10.37,2013-03-20 19:15:00,
2013-03-20 15:17:00,48.2,17.4,29.95,WNW,294,10.0,10.0,29,0.00,,,0.00,WeatherDisplay:10.37,2013-03-20 19:17:00,
2013-03-20 15:20:00,48.4,16.7,29.95,WSW,257,18.4,18.4,28,0.00,,,0.00,WeatherDisplay:10.37,2013-03-20 19:20:00,
2013-03-20 15:22:00,48.1,14.8,29.95,WSW,246,18.4,18.4,26,0.00,,,0.00,WeatherDisplay:10.37,2013-03-20 19:22:00,
2013-03-20 15:24:00,47.9,14.6,29.95,WSW,257,9.2,9.2,26,0.00,,,0.00,WeatherDisplay:10.37,2013-03-20 19:24:00,
2013-03-20 15:26:00,48.0,18.0,29.95,NW,309,13.8,13.8,30,0.00,,,0.00,WeatherDisplay:10.37,2013-03-20 19:26:00,
2013-03-20 15:27:00,48.1,18.1,29.95,West,268,17.0,17.0,30,0.00,,,0.00,WeatherDisplay:10.37,2013-03-20 19:27:00,
2013-03-20 15:29:00,48.1,17.3,29.94,SW,236,13.8,13.8,29,0.00,,,0.00,WeatherDisplay:10.37,2013-03-20 19:29:00,
2013-03-20 15:32:00,48.0,17.2,29.94,South,185,9.2,9.2,29,0.00,,,0.00,WeatherDisplay:10.37,2013-03-20 19:32:00,
2013-03-20 15:34:00,48.2,17.4,29.94,SW,231,9.2,9.2,29,0.00,,,0.00,WeatherDisplay:10.37,2013-03-20 19:34:00,
2013-03-20 15:37:00,48.2,16.6,29.94,WSW,238,19.6,19.6,28,0.00,,,0.00,WeatherDisplay:10.37,2013-03-20 19:37:00,
2013-03-20 15:38:00,48.3,16.7,29.94,WSW,238,15.0,15.0,28,0.00,,,0.00,WeatherDisplay:10.37,2013-03-20 19:38:00,
2013-03-20 15:39:00,48.3,16.7,29.94,South,185,14.0,14.0,28,0.00,,,0.00,WeatherDisplay:10.37,2013-03-20 19:39:00,
2013-03-20 15:42:00,48.6,16.9,29.93,SW,222,11.5,11.5,28,0.00,,,0.00,WeatherDisplay:10.37,2013-03-20 19:42:00,
2013-03-20 15:43:00,48.7,17.0,29.93,WSW,257,11.5,11.5,28,0.00,,,0.00,WeatherDisplay:10.37,2013-03-20 19:43:00,
2013-03-20 15:44:00,48.7,16.2,29.93,WNW,300,13.8,13.8,27,0.00,,,0.00,WeatherDisplay:10.37,2013-03-20 19:44:00,
2013-03-20 15:48:00,48.9,18.0,29.93,West,260,8.1,8.1,29,0.00,,,0.00,WeatherDisplay:10.37,2013-03-20 19:48:00,
2013-03-20 15:49:00,48.9,18.0,29.93,West,263,10.4,10.4,29,0.00,,,0.00,WeatherDisplay:10.37,2013-03-20 19:49:00,
2013-03-20 15:53:00,48.5,15.1,29.93,West,265,17.3,17.3,26,0.00,,,0.00,WeatherDisplay:10.37,2013-03-20 19:53:00,
2013-03-20 15:54:00,48.3,15.0,29.93,West,268,8.1,8.1,26,0.00,,,0.00,WeatherDisplay:10.37,2013-03-20 19:54:00,
2013-03-20 15:58:00,48.5,17.6,29.93,WSW,253,13.0,13.0,29,0.00,,,0.00,WeatherDisplay:10.37,2013-03-20 19:58:00,
2013-03-20 15:59:00,48.6,16.1,29.92,WSW,249,12.7,12.7,27,0.00,,,0.00,WeatherDisplay:10.37,2013-03-20 19:59:00,
2013-03-20 16:00:00,48.6,16.1,29.92,WSW,245,7.0,13.0,27,0.00,,,0.00,WeatherDisplay:10.37,2013-03-20 20:00:00,
2013-03-20 16:03:00,48.2,16.6,29.92,SW,223,8.1,8.1,28,0.00,,,0.00,WeatherDisplay:10.37,2013-03-20 20:03:00,
2013-03-20 16:04:00,48.0,15.6,29.92,West,274,13.8,13.8,27,0.00,,,0.00,WeatherDisplay:10.37,2013-03-20 20:04:00,
2013-03-20 16:05:00,47.9,15.5,29.92,WSW,253,17.0,17.0,27,0.00,,,0.00,WeatherDisplay:10.37,2013-03-20 20:05:00,
2013-03-20 16:09:00,47.3,15.0,29.92,WSW,246,7.0,7.0,27,0.00,,,0.00,WeatherDisplay:10.37,2013-03-20 20:09:00,
2013-03-20 16:10:00,47.4,15.9,29.92,West,261,5.0,17.0,28,0.00,,,0.00,WeatherDisplay:10.37,2013-03-20 20:10:00,
2013-03-20 16:14:00,47.8,17.0,29.92,NW,307,6.9,6.9,29,0.00,,,0.00,WeatherDisplay:10.37,2013-03-20 20:14:00,
2013-03-20 16:15:00,48.3,19.8,29.91,West,259,5.0,5.0,32,0.00,,,0.00,WeatherDisplay:10.37,2013-03-20 20:15:00,
2013-03-20 16:19:00,48.2,14.9,29.92,SW,222,23.0,23.0,26,0.00,,,0.00,WeatherDisplay:10.37,2013-03-20 20:19:00,
2013-03-20 16:20:00,48.2,15.7,29.92,WNW,294,18.4,18.4,27,0.00,,,0.00,WeatherDisplay:10.37,2013-03-20 20:20:00,
2013-03-20 16:24:00,48.7,16.2,29.91,SW,228,9.2,9.2,27,0.00,,,0.00,WeatherDisplay:10.37,2013-03-20 20:24:00,
2013-03-20 16:25:00,48.6,16.1,29.91,WSW,241,10.4,10.4,27,0.00,,,0.00,WeatherDisplay:10.37,2013-03-20 20:25:00,
2013-03-20 16:26:00,48.5,16.0,29.91,West,260,8.1,8.1,27,0.00,,,0.00,WeatherDisplay:10.37,2013-03-20 20:26:00,
2013-03-20 16:29:00,48.2,15.7,29.91,West,261,16.1,16.1,27,0.00,,,0.00,WeatherDisplay:10.37,2013-03-20 20:29:00,
2013-03-20 16:30:00,48.1,16.5,29.91,WSW,250,11.5,11.5,28,0.00,,,0.00,WeatherDisplay:10.37,2013-03-20 20:30:00,
2013-03-20 16:31:00,48.1,15.6,29.91,SW,233,17.3,17.3,27,0.00,,,0.00,WeatherDisplay:10.37,2013-03-20 20:31:00,
2013-03-20 16:34:00,48.0,16.4,29.91,SSW,207,15.0,15.0,28,0.00,,,0.00,WeatherDisplay:10.37,2013-03-20 20:34:00,
2013-03-20 16:35:00,48.2,16.6,29.91,WSW,245,12.0,12.0,28,0.00,,,0.00,WeatherDisplay:10.37,2013-03-20 20:35:00,
2013-03-20 16:37:00,48.5,17.6,29.91,WSW,245,11.5,11.5,29,0.00,,,0.00,WeatherDisplay:10.37,2013-03-20 20:37:00,
2013-03-20 16:38:00,48.7,17.8,29.90,SW,227,11.5,11.5,29,0.00,,,0.00,WeatherDisplay:10.37,2013-03-20 20:38:00,
2013-03-20 16:39:00,48.6,16.9,29.90,NW,314,15.0,15.0,28,0.00,,,0.00,WeatherDisplay:10.37,2013-03-20 20:39:00,
2013-03-20 16:40:00,48.5,16.0,29.90,NW,314,15.0,15.0,27,0.00,,,0.00,WeatherDisplay:10.37,2013-03-20 20:40:00,
2013-03-20 16:42:00,48.5,16.8,29.90,SSW,210,12.7,12.7,28,0.00,,,0.00,WeatherDisplay:10.37,2013-03-20 20:42:00,
2013-03-20 16:43:00,48.7,16.2,29.90,WSW,241,11.5,11.5,27,0.00,,,0.00,WeatherDisplay:10.37,2013-03-20 20:43:00,
2013-03-20 16:44:00,48.8,16.2,29.89,North,2,16.1,16.1,27,0.00,,,0.00,WeatherDisplay:10.37,2013-03-20 20:44:00,
2013-03-20 16:46:00,48.9,17.2,29.90,WSW,245,12.0,12.0,28,0.00,,,0.00,WeatherDisplay:10.37,2013-03-20 20:46:00,
2013-03-20 16:47:00,48.7,14.4,29.89,SSW,212,17.3,17.3,25,0.00,,,0.00,WeatherDisplay:10.37,2013-03-20 20:47:00,
2013-03-20 16:48:00,48.5,15.1,29.89,WSW,237,11.5,11.5,26,0.00,,,0.00,WeatherDisplay:10.37,2013-03-20 20:48:00,
2013-03-20 16:49:00,48.5,16.0,29.90,SW,233,6.9,7.1,27,0.00,,,0.00,WeatherDisplay:10.37,2013-03-20 20:49:00,
2013-03-20 16:51:00,48.6,15.2,29.89,West,259,10.4,10.4,26,0.00,,,0.00,WeatherDisplay:10.37,2013-03-20 20:51:00,
2013-03-20 16:52:00,48.7,15.3,29.89,NW,320,13.8,13.8,26,0.00,,,0.00,WeatherDisplay:10.37,2013-03-20 20:52:00,
2013-03-20 16:54:00,49.1,15.6,29.89,WSW,251,11.5,11.5,26,0.00,,,0.00,WeatherDisplay:10.37,2013-03-20 20:54:00,
2013-03-20 16:55:00,49.2,15.7,29.89,SW,233,11.5,11.5,26,0.00,,,0.00,WeatherDisplay:10.37,2013-03-20 20:55:00,
2013-03-20 16:56:00,49.3,14.9,29.89,West,269,16.1,16.1,25,0.00,,,0.00,WeatherDisplay:10.37,2013-03-20 20:56:00,
2013-03-20 16:58:00,49.2,12.9,29.89,SW,229,18.4,18.4,23,0.00,,,0.00,WeatherDisplay:10.37,2013-03-20 20:58:00,
2013-03-20 17:00:00,49.0,13.7,29.89,WSW,256,11.5,11.5,24,0.00,,,0.00,WeatherDisplay:10.37,2013-03-20 21:00:00,
2013-03-20 17:02:00,49.0,13.7,29.89,West,260,11.5,11.5,24,0.00,,,0.00,WeatherDisplay:10.37,2013-03-20 21:02:00,
2013-03-20 17:03:00,49.0,14.7,29.89,SW,216,12.7,12.7,25,0.00,,,0.00,WeatherDisplay:10.37,2013-03-20 21:03:00,
2013-03-20 17:05:00,49.1,14.7,29.89,WSW,247,7.0,14.0,25,0.00,,,0.00,WeatherDisplay:10.37,2013-03-20 21:05:00,
2013-03-20 17:07:00,49.3,14.9,29.88,WSW,249,12.7,12.7,25,0.00,,,0.00,WeatherDisplay:10.37,2013-03-20 21:07:00,
2013-03-20 17:08:00,49.6,14.2,29.88,WSW,241,11.0,11.0,24,0.00,,,0.00,WeatherDisplay:10.37,2013-03-20 21:08:00,
2013-03-20 17:10:00,49.6,13.3,29.88,SSW,194,12.7,12.7,23,0.00,,,0.00,WeatherDisplay:10.37,2013-03-20 21:10:00,
2013-03-20 17:13:00,49.8,15.3,29.88,West,276,16.0,16.0,25,0.00,,,0.00,WeatherDisplay:10.37,2013-03-20 21:13:00,
2013-03-20 17:15:00,49.5,12.2,29.88,WSW,240,13.8,13.8,22,0.00,,,0.00,WeatherDisplay:10.37,2013-03-20 21:15:00,
2013-03-20 17:18:00,49.2,11.9,29.88,West,259,15.0,15.0,22,0.00,,,0.00,WeatherDisplay:10.37,2013-03-20 21:18:00,
2013-03-20 17:20:00,49.1,12.8,29.88,WSW,257,12.7,12.7,23,0.00,,,0.00,WeatherDisplay:10.37,2013-03-20 21:20:00,
2013-03-20 17:21:00,49.0,12.7,29.88,WSW,250,12.0,12.0,23,0.00,,,0.00,WeatherDisplay:10.37,2013-03-20 21:21:00,
2013-03-20 17:23:00,48.8,12.6,29.88,WSW,238,11.5,11.5,23,0.00,,,0.00,WeatherDisplay:10.37,2013-03-20 21:23:00,
2013-03-20 17:24:00,48.6,13.4,29.88,South,184,10.4,10.4,24,0.00,,,0.00,WeatherDisplay:10.37,2013-03-20 21:24:00,
2013-03-20 17:25:00,48.3,12.2,29.88,WSW,241,11.5,11.5,23,0.00,,,0.00,WeatherDisplay:10.37,2013-03-20 21:25:00,
2013-03-20 17:27:00,47.9,13.7,29.88,WSW,246,13.8,13.8,25,0.00,,,0.00,WeatherDisplay:10.37,2013-03-20 21:27:00,
2013-03-20 17:28:00,47.8,13.6,29.88,SSW,204,17.3,17.3,25,0.00,,,0.00,WeatherDisplay:10.37,2013-03-20 21:28:00,
2013-03-20 17:29:00,47.7,13.5,29.88,WSW,253,11.5,11.5,25,0.00,,,0.00,WeatherDisplay:10.37,2013-03-20 21:29:00,
2013-03-20 17:30:00,47.6,12.5,29.88,SW,232,12.7,12.7,24,0.00,,,0.00,WeatherDisplay:10.37,2013-03-20 21:30:00,
2013-03-20 17:32:00,47.7,13.5,29.88,West,264,15.0,15.0,25,0.00,,,0.00,WeatherDisplay:10.37,2013-03-20 21:32:00,
2013-03-20 17:34:00,47.7,13.5,29.87,SW,229,6.9,6.9,25,0.00,,,0.00,WeatherDisplay:10.37,2013-03-20 21:34:00,
2013-03-20 17:36:00,47.7,13.5,29.87,WSW,250,12.7,12.7,25,0.00,,,0.00,WeatherDisplay:10.37,2013-03-20 21:36:00,
2013-03-20 17:37:00,47.5,13.4,29.87,SW,219,15.0,15.0,25,0.00,,,0.00,WeatherDisplay:10.37,2013-03-20 21:37:00,
2013-03-20 17:39:00,47.4,13.3,29.87,NW,307,12.7,12.7,25,0.00,,,0.00,WeatherDisplay:10.37,2013-03-20 21:39:00,
2013-03-20 17:41:00,47.1,15.6,29.87,NW,305,15.0,15.0,28,0.00,,,0.00,WeatherDisplay:10.37,2013-03-20 21:41:00,
2013-03-20 17:43:00,46.9,14.6,29.87,WNW,286,13.8,13.8,27,0.00,,,0.00,WeatherDisplay:10.37,2013-03-20 21:43:00,
2013-03-20 17:44:00,46.9,13.7,29.87,West,264,9.2,9.2,26,0.00,,,0.00,WeatherDisplay:10.37,2013-03-20 21:44:00,
2013-03-20 17:47:00,46.7,12.7,29.87,WSW,256,12.7,12.7,25,0.00,,,0.00,WeatherDisplay:10.37,2013-03-20 21:47:00,
2013-03-20 17:49:00,46.7,12.7,29.87,West,274,17.3,17.3,25,0.00,,,0.00,WeatherDisplay:10.37,2013-03-20 21:49:00,
2013-03-20 17:50:00,46.6,13.5,29.87,WSW,243,17.3,17.3,26,0.00,,,0.00,WeatherDisplay:10.37,2013-03-20 21:50:00,
2013-03-20 17:52:00,46.5,13.4,29.87,SW,232,11.5,11.5,26,0.00,,,0.00,WeatherDisplay:10.37,2013-03-20 21:52:00,
2013-03-20 17:54:00,46.5,14.3,29.87,WSW,249,11.5,11.5,27,0.00,,,0.00,WeatherDisplay:10.37,2013-03-20 21:54:00,
2013-03-20 17:55:00,46.5,13.4,29.86,WSW,238,11.5,11.5,26,0.00,,,0.00,WeatherDisplay:10.37,2013-03-20 21:55:00,
2013-03-20 17:57:00,46.5,13.4,29.86,West,267,12.7,12.7,26,0.00,,,0.00,WeatherDisplay:10.37,2013-03-20 21:57:00,
2013-03-20 17:59:00,46.6,14.4,29.86,West,274,6.9,6.9,27,0.00,,,0.00,WeatherDisplay:10.37,2013-03-20 21:59:00,
2013-03-20 18:00:00,46.6,14.4,29.86,SW,232,11.5,11.5,27,0.00,,,0.00,WeatherDisplay:10.37,2013-03-20 22:00:00,
2013-03-20 18:02:00,46.6,15.2,29.86,WSW,242,11.5,11.5,28,0.00,,,0.00,WeatherDisplay:10.37,2013-03-20 22:02:00,
2013-03-20 18:04:00,46.6,13.5,29.86,West,269,16.0,16.0,26,0.00,,,0.00,WeatherDisplay:10.37,2013-03-20 22:04:00,
2013-03-20 18:05:00,46.5,14.3,29.86,NW,307,18.4,18.4,27,0.00,,,0.00,WeatherDisplay:10.37,2013-03-20 22:05:00,
2013-03-20 18:07:00,46.5,15.1,29.86,West,260,10.4,10.4,28,0.00,,,0.00,WeatherDisplay:10.37,2013-03-20 22:07:00,
2013-03-20 18:09:00,46.5,15.1,29.86,West,272,9.2,9.2,28,0.00,,,0.00,WeatherDisplay:10.37,2013-03-20 22:09:00,
2013-03-20 18:10:00,46.5,14.3,29.86,WSW,238,5.0,5.0,27,0.00,,,0.00,WeatherDisplay:10.37,2013-03-20 22:10:00,
2013-03-20 18:11:00,46.5,14.3,29.86,WSW,245,4.6,4.6,27,0.00,,,0.00,WeatherDisplay:10.37,2013-03-20 22:11:00,
2013-03-20 18:13:00,46.5,14.3,29.86,WNW,295,11.5,11.5,27,0.00,,,0.00,WeatherDisplay:10.37,2013-03-20 22:13:00,
2013-03-20 18:15:00,46.4,15.0,29.86,West,279,9.2,9.2,28,0.00,,,0.00,WeatherDisplay:10.37,2013-03-20 22:15:00,
2013-03-20 18:16:00,46.3,14.9,29.86,WNW,283,8.1,8.1,28,0.00,,,0.00,WeatherDisplay:10.37,2013-03-20 22:16:00,
2013-03-20 18:18:00,46.3,14.9,29.86,WSW,248,5.8,5.8,28,0.00,,,0.00,WeatherDisplay:10.37,2013-03-20 22:18:00,
2013-03-20 18:20:00,46.2,15.6,29.86,West,265,9.0,9.0,29,0.00,,,0.00,WeatherDisplay:10.37,2013-03-20 22:20:00,
2013-03-20 18:21:00,46.2,14.8,29.86,West,265,15.0,15.0,28,0.00,,,0.00,WeatherDisplay:10.37,2013-03-20 22:21:00,
2013-03-20 18:22:00,46.2,14.0,29.86,West,275,15.0,15.0,27,0.00,,,0.00,WeatherDisplay:10.37,2013-03-20 22:22:00,
2013-03-20 18:23:00,46.1,13.9,29.86,WSW,254,12.7,12.7,27,0.00,,,0.00,WeatherDisplay:10.37,2013-03-20 22:23:00,
2013-03-20 18:26:00,46.0,13.8,29.86,WNW,285,6.9,6.9,27,0.00,,,0.00,WeatherDisplay:10.37,2013-03-20 22:26:00,
2013-03-20 18:27:00,46.0,13.8,29.86,WSW,246,6.9,7.8,27,0.00,,,0.00,WeatherDisplay:10.37,2013-03-20 22:27:00,
2013-03-20 18:28:00,46.0,15.5,29.86,SW,224,11.5,11.5,29,0.00,,,0.00,WeatherDisplay:10.37,2013-03-20 22:28:00,
2013-03-20 18:32:00,45.9,14.6,29.86,WSW,245,18.4,18.4,28,0.00,,,0.00,WeatherDisplay:10.37,2013-03-20 22:32:00,
2013-03-20 18:33:00,45.8,15.3,29.86,West,272,11.5,11.5,29,0.00,,,0.00,WeatherDisplay:10.37,2013-03-20 22:33:00,
2013-03-20 18:37:00,45.7,16.0,29.86,WSW,255,10.4,10.4,30,0.00,,,0.00,WeatherDisplay:10.37,2013-03-20 22:37:00,
2013-03-20 18:39:00,45.5,16.6,29.86,NW,309,13.0,13.0,31,0.00,,,0.00,WeatherDisplay:10.37,2013-03-20 22:39:00,
2013-03-20 18:42:00,45.3,15.6,29.86,NW,308,16.1,16.1,30,0.00,,,0.00,WeatherDisplay:10.37,2013-03-20 22:42:00,
2013-03-20 18:43:00,45.3,15.6,29.86,WSW,241,16.1,16.1,30,0.00,,,0.00,WeatherDisplay:10.37,2013-03-20 22:43:00,
2013-03-20 18:44:00,45.3,14.9,29.86,WSW,253,4.6,4.6,29,0.00,,,0.00,WeatherDisplay:10.37,2013-03-20 22:44:00,
2013-03-20 18:47:00,45.3,15.6,29.86,SW,217,5.8,5.8,30,0.00,,,0.00,WeatherDisplay:10.37,2013-03-20 22:47:00,
2013-03-20 18:48:00,45.3,15.6,29.86,SW,234,8.1,8.1,30,0.00,,,0.00,WeatherDisplay:10.37,2013-03-20 22:48:00,
2013-03-20 18:49:00,45.3,15.6,29.86,WSW,258,9.2,9.2,30,0.00,,,0.00,WeatherDisplay:10.37,2013-03-20 22:49:00,
2013-03-20 18:52:00,45.3,15.6,29.86,WSW,253,8.1,8.1,30,0.00,,,0.00,WeatherDisplay:10.37,2013-03-20 22:52:00,
2013-03-20 18:53:00,45.2,15.6,29.86,NW,309,10.4,10.4,30,0.00,,,0.00,WeatherDisplay:10.37,2013-03-20 22:53:00,
2013-03-20 18:54:00,45.2,16.3,29.86,WNW,286,4.0,4.0,31,0.00,,,0.00,WeatherDisplay:10.37,2013-03-20 22:54:00,
2013-03-20 18:58:00,45.1,16.2,29.86,WSW,244,11.5,11.5,31,0.00,,,0.00,WeatherDisplay:10.37,2013-03-20 22:58:00,
2013-03-20 19:00:00,45.1,16.2,29.86,WSW,241,10.4,10.4,31,0.00,,,0.00,WeatherDisplay:10.37,2013-03-20 23:00:00,
2013-03-20 19:03:00,45.1,16.2,29.86,NNW,328,8.1,8.1,31,0.00,,,0.00,WeatherDisplay:10.37,2013-03-20 23:03:00,
2013-03-20 19:05:00,45.1,16.2,29.86,West,260,9.0,9.0,31,0.00,,,0.00,WeatherDisplay:10.37,2013-03-20 23:05:00,
2013-03-20 19:08:00,45.0,16.1,29.86,WNW,299,4.6,4.6,31,0.00,,,0.00,WeatherDisplay:10.37,2013-03-20 23:08:00,
2013-03-20 19:09:00,45.0,16.9,29.86,WSW,245,9.2,9.2,32,0.00,,,0.00,WeatherDisplay:10.37,2013-03-20 23:09:00,
2013-03-20 19:10:00,45.0,16.1,29.86,WSW,238,8.0,8.0,31,0.00,,,0.00,WeatherDisplay:10.37,2013-03-20 23:10:00,
2013-03-20 19:13:00,45.0,15.4,29.86,West,278,10.4,10.4,30,0.00,,,0.00,WeatherDisplay:10.37,2013-03-20 23:13:00,
2013-03-20 19:14:00,45.0,15.4,29.86,WSW,240,10.4,10.4,30,0.00,,,0.00,WeatherDisplay:10.37,2013-03-20 23:14:00,
2013-03-20 19:15:00,45.0,16.1,29.86,NW,309,8.1,8.1,31,0.00,,,0.00,WeatherDisplay:10.37,2013-03-20 23:15:00,
2013-03-20 19:18:00,44.9,16.8,29.86,SW,229,9.2,9.2,32,0.00,,,0.00,WeatherDisplay:10.37,2013-03-20 23:18:00,
2013-03-20 19:19:00,44.9,15.3,29.86,SW,224,16.1,16.1,30,0.00,,,0.00,WeatherDisplay:10.37,2013-03-20 23:19:00,
2013-03-20 19:20:00,44.8,16.0,29.86,NNW,328,16.1,16.1,31,0.00,,,0.00,WeatherDisplay:10.37,2013-03-20 23:20:00,
2013-03-20 19:24:00,44.6,15.8,29.86,West,276,10.4,10.4,31,0.00,,,0.00,WeatherDisplay:10.37,2013-03-20 23:24:00,
2013-03-20 19:25:00,44.5,14.9,29.86,West,264,9.2,9.2,30,0.00,,,0.00,WeatherDisplay:10.37,2013-03-20 23:25:00,
2013-03-20 19:29:00,44.2,16.2,29.86,WSW,241,8.1,8.1,32,0.00,,,0.00,WeatherDisplay:10.37,2013-03-20 23:29:00,
2013-03-20 19:30:00,44.1,16.1,29.86,WSW,250,10.4,10.4,32,0.00,,,0.00,WeatherDisplay:10.37,2013-03-20 23:30:00,
2013-03-20 19:34:00,43.8,15.8,29.86,West,264,6.9,6.9,32,0.00,,,0.00,WeatherDisplay:10.37,2013-03-20 23:34:00,
2013-03-20 19:36:00,43.7,15.7,29.86,SW,221,5.8,5.8,32,0.00,,,0.00,WeatherDisplay:10.37,2013-03-20 23:36:00,
2013-03-20 19:39:00,43.4,16.2,29.86,WSW,246,9.2,9.2,33,0.00,,,0.00,WeatherDisplay:10.37,2013-03-20 23:39:00,
2013-03-20 19:40:00,43.4,16.2,29.86,WSW,254,8.1,8.1,33,0.00,,,0.00,WeatherDisplay:10.37,2013-03-20 23:40:00,
2013-03-20 19:41:00,43.4,16.2,29.86,SW,234,5.8,5.8,33,0.00,,,0.00,WeatherDisplay:10.37,2013-03-20 23:41:00,
2013-03-20 19:44:00,43.2,16.0,29.86,WSW,255,4.6,4.6,33,0.00,,,0.00,WeatherDisplay:10.37,2013-03-20 23:44:00,
2013-03-20 19:46:00,43.2,16.7,29.86,WSW,240,3.5,3.5,34,0.00,,,0.00,WeatherDisplay:10.37,2013-03-20 23:46:00,
2013-03-20 19:49:00,42.9,16.4,29.86,WSW,249,5.8,5.8,34,0.00,,,0.00,WeatherDisplay:10.37,2013-03-20 23:49:00,
2013-03-20 19:50:00,42.9,16.4,29.86,WNW,286,4.6,4.6,34,0.00,,,0.00,WeatherDisplay:10.37,2013-03-20 23:50:00,
2013-03-20 19:51:00,42.8,17.0,29.86,WSW,255,8.1,8.1,35,0.00,,,0.00,WeatherDisplay:10.37,2013-03-20 23:51:00,
2013-03-20 19:52:00,42.8,16.3,29.86,NW,309,11.5,11.5,34,0.00,,,0.00,WeatherDisplay:10.37,2013-03-20 23:52:00,
2013-03-20 19:55:00,42.7,16.2,29.86,WSW,243,3.5,4.3,34,0.00,,,0.00,WeatherDisplay:10.37,2013-03-20 23:55:00,
2013-03-20 19:57:00,42.7,16.2,29.86,West,269,7.0,7.0,34,0.00,,,0.00,WeatherDisplay:10.37,2013-03-20 23:57:00,
2013-03-20 20:00:00,42.6,16.2,29.86,West,267,6.9,6.9,34,0.00,,,0.00,WeatherDisplay:10.37,2013-03-21 00:00:00,
2013-03-20 20:02:00,42.5,16.1,29.86,West,260,6.0,6.0,34,0.00,,,0.00,WeatherDisplay:10.37,2013-03-21 00:02:00,
2013-03-20 20:05:00,42.5,16.7,29.86,WSW,257,4.0,4.0,35,0.00,,,0.00,WeatherDisplay:10.37,2013-03-21 00:05:00,
2013-03-20 20:07:00,42.4,16.6,29.86,NW,310,11.5,11.5,35,0.00,,,0.00,WeatherDisplay:10.37,2013-03-21 00:07:00,
2013-03-20 20:08:00,42.4,16.6,29.86,NW,305,11.5,11.5,35,0.00,,,0.00,WeatherDisplay:10.37,2013-03-21 00:08:00,
2013-03-20 20:10:00,42.4,16.6,29.86,WNW,303,11.5,11.5,35,0.00,,,0.00,WeatherDisplay:10.37,2013-03-21 00:10:00,
2013-03-20 20:11:00,42.4,16.6,29.86,WNW,286,6.0,6.0,35,0.00,,,0.00,WeatherDisplay:10.37,2013-03-21 00:11:00,
2013-03-20 20:13:00,42.5,16.7,29.87,WNW,293,9.2,9.2,35,0.00,,,0.00,WeatherDisplay:10.37,2013-03-21 00:13:00,
2013-03-20 20:15:00,42.5,17.4,29.87,West,281,9.2,9.2,36,0.00,,,0.00,WeatherDisplay:10.37,2013-03-21 00:15:00,
2013-03-20 20:16:00,42.5,17.4,29.87,NW,326,12.0,12.0,36,0.00,,,0.00,WeatherDisplay:10.37,2013-03-21 00:16:00,
2013-03-20 20:18:00,42.6,18.1,29.87,NW,323,15.0,15.0,37,0.00,,,0.00,WeatherDisplay:10.37,2013-03-21 00:18:00,
2013-03-20 20:19:00,42.6,18.7,29.88,West,275,18.4,18.4,38,0.00,,,0.00,WeatherDisplay:10.37,2013-03-21 00:19:00,
2013-03-20 20:21:00,42.4,19.2,29.87,SW,228,13.8,13.8,39,0.00,,,0.00,WeatherDisplay:10.37,2013-03-21 00:21:00,
2013-03-20 20:22:00,42.4,18.6,29.87,WNW,282,9.2,9.2,38,0.00,,,0.00,WeatherDisplay:10.37,2013-03-21 00:22:00,
2013-03-20 20:23:00,42.3,19.1,29.87,SW,228,8.1,8.1,39,0.00,,,0.00,WeatherDisplay:10.37,2013-03-21 00:23:00,
2013-03-20 20:24:00,42.3,19.1,29.87,WSW,254,11.0,11.0,39,0.00,,,0.00,WeatherDisplay:10.37,2013-03-21 00:24:00,
2013-03-20 20:27:00,42.2,19.0,29.87,WSW,246,13.8,13.8,39,0.00,,,0.00,WeatherDisplay:10.37,2013-03-21 00:27:00,
2013-03-20 20:28:00,42.1,19.5,29.87,WSW,250,9.2,9.2,40,0.00,,,0.00,WeatherDisplay:10.37,2013-03-21 00:28:00,
2013-03-20 20:29:00,42.1,19.5,29.87,WNW,300,5.8,5.8,40,0.00,,,0.00,WeatherDisplay:10.37,2013-03-21 00:29:00,
2013-03-20 20:32:00,42.0,18.8,29.87,WSW,250,9.2,9.2,39,0.00,,,0.00,WeatherDisplay:10.37,2013-03-21 00:32:00,
2013-03-20 20:33:00,42.0,18.8,29.87,WSW,241,4.6,4.6,39,0.00,,,0.00,WeatherDisplay:10.37,2013-03-21 00:33:00,
2013-03-20 20:34:00,41.9,18.7,29.87,West,276,6.9,6.9,39,0.00,,,0.00,WeatherDisplay:10.37,2013-03-21 00:34:00,
2013-03-20 20:38:00,41.9,19.3,29.87,WSW,258,8.1,8.1,40,0.00,,,0.00,WeatherDisplay:10.37,2013-03-21 00:38:00,
2013-03-20 20:40:00,41.9,19.3,29.87,WSW,252,6.9,6.9,40,0.00,,,0.00,WeatherDisplay:10.37,2013-03-21 00:40:00,
2013-03-20 20:43:00,41.9,18.7,29.87,West,276,9.2,9.2,39,0.00,,,0.00,WeatherDisplay:10.37,2013-03-21 00:43:00,
2013-03-20 20:45:00,41.9,18.7,29.87,WNW,303,9.2,9.2,39,0.00,,,0.00,WeatherDisplay:10.37,2013-03-21 00:45:00,
2013-03-20 20:48:00,41.9,18.7,29.87,WSW,241,9.2,9.2,39,0.00,,,0.00,WeatherDisplay:10.37,2013-03-21 00:48:00,
2013-03-20 20:50:00,41.9,18.7,29.87,West,265,6.9,6.9,39,0.00,,,0.00,WeatherDisplay:10.37,2013-03-21 00:50:00,
2013-03-20 20:53:00,41.8,19.2,29.87,NW,318,5.8,5.8,40,0.00,,,0.00,WeatherDisplay:10.37,2013-03-21 00:53:00,
2013-03-20 20:54:00,41.8,19.2,29.87,WSW,245,5.8,5.8,40,0.00,,,0.00,WeatherDisplay:10.37,2013-03-21 00:54:00,
2013-03-20 20:55:00,41.8,19.2,29.87,WSW,252,6.9,6.9,40,0.00,,,0.00,WeatherDisplay:10.37,2013-03-21 00:55:00,
2013-03-20 20:57:00,41.8,19.2,29.87,WSW,252,3.5,3.5,40,0.00,,,0.00,WeatherDisplay:10.37,2013-03-21 00:57:00,
2013-03-20 20:58:00,41.8,19.2,29.87,WSW,252,5.8,5.8,40,0.00,,,0.00,WeatherDisplay:10.37,2013-03-21 00:58:00,
2013-03-20 20:59:00,41.8,19.2,29.87,SW,229,9.2,9.2,40,0.00,,,0.00,WeatherDisplay:10.37,2013-03-21 00:59:00,
2013-03-20 21:00:00,41.8,19.2,29.87,NW,309,9.0,9.0,40,0.00,,,0.00,WeatherDisplay:10.37,2013-03-21 01:00:00,
2013-03-20 21:02:00,41.8,19.8,29.87,WNW,296,5.8,5.8,41,0.00,,,0.00,WeatherDisplay:10.37,2013-03-21 01:02:00,
2013-03-20 21:03:00,41.8,19.8,29.87,WNW,283,3.5,3.5,41,0.00,,,0.00,WeatherDisplay:10.37,2013-03-21 01:03:00,
2013-03-20 21:04:00,41.8,19.8,29.87,WSW,254,3.5,3.5,41,0.00,,,0.00,WeatherDisplay:10.37,2013-03-21 01:04:00,
2013-03-20 21:05:00,41.7,20.3,29.87,WNW,283,3.5,3.5,42,0.00,,,0.00,WeatherDisplay:10.37,2013-03-21 01:05:00,
2013-03-20 21:08:00,41.7,19.7,29.88,NW,312,12.0,12.0,41,0.00,,,0.00,WeatherDisplay:10.37,2013-03-21 01:08:00,
2013-03-20 21:09:00,41.8,19.8,29.88,NW,309,11.5,11.5,41,0.00,,,0.00,WeatherDisplay:10.37,2013-03-21 01:09:00,
2013-03-20 21:10:00,41.8,20.4,29.89,West,272,10.4,10.4,42,0.00,,,0.00,WeatherDisplay:10.37,2013-03-21 01:10:00,
2013-03-20 21:13:00,41.3,22.6,29.89,WNW,296,19.6,19.6,47,0.00,,,0.00,WeatherDisplay:10.37,2013-03-21 01:13:00,
2013-03-20 21:14:00,41.3,22.6,29.89,NW,309,16.1,16.1,47,0.00,,,0.00,WeatherDisplay:10.37,2013-03-21 01:14:00,
2013-03-20 21:16:00,40.8,23.6,29.89,NW,316,15.0,15.0,50,0.00,,,0.00,WeatherDisplay:10.37,2013-03-21 01:16:00,
2013-03-20 21:18:00,40.4,24.6,29.90,West,265,11.5,11.5,53,0.00,,,0.00,WeatherDisplay:10.37,2013-03-21 01:18:00,
2013-03-20 21:19:00,40.4,24.6,29.90,WNW,287,16.1,16.1,53,0.00,,,0.00,WeatherDisplay:10.37,2013-03-21 01:19:00,
2013-03-20 21:20:00,40.2,24.4,29.90,WSW,243,15.0,15.0,53,0.00,,,0.00,WeatherDisplay:10.37,2013-03-21 01:20:00,
2013-03-20 21:21:00,39.8,24.0,29.90,WSW,253,17.3,17.3,53,0.00,,,0.00,WeatherDisplay:10.37,2013-03-21 01:21:00,
2013-03-20 21:23:00,39.1,26.4,29.90,WSW,238,8.1,8.1,60,0.00,,,0.00,WeatherDisplay:10.37,2013-03-21 01:23:00,
2013-03-20 21:24:00,39.0,26.3,29.90,WNW,283,9.2,9.2,60,0.00,,,0.00,WeatherDisplay:10.37,2013-03-21 01:24:00,
2013-03-20 21:25:00,38.9,26.2,29.90,SW,228,6.9,6.9,60,0.00,,,0.00,WeatherDisplay:10.37,2013-03-21 01:25:00,
2013-03-20 21:27:00,38.7,26.4,29.90,West,277,5.8,5.8,61,0.00,,,0.00,WeatherDisplay:10.37,2013-03-21 01:27:00,
2013-03-20 21:29:00,38.5,26.2,29.89,NW,310,10.0,10.0,61,0.00,,,0.00,WeatherDisplay:10.37,2013-03-21 01:29:00,
2013-03-20 21:30:00,38.4,25.7,29.89,West,262,8.1,8.1,60,0.00,,,0.00,WeatherDisplay:10.37,2013-03-21 01:30:00,
2013-03-20 21:33:00,38.4,26.1,29.90,NW,305,10.4,10.4,61,0.00,,,0.00,WeatherDisplay:10.37,2013-03-21 01:33:00,
2013-03-20 21:34:00,38.3,26.0,29.90,NW,306,10.0,10.0,61,0.00,,,0.00,WeatherDisplay:10.37,2013-03-21 01:34:00,
2013-03-20 21:35:00,38.3,26.0,29.90,WNW,298,11.5,11.5,61,0.00,,,0.00,WeatherDisplay:10.37,2013-03-21 01:35:00,
2013-03-20 21:38:00,38.1,26.6,29.90,WSW,249,16.1,16.1,63,0.00,,,0.00,WeatherDisplay:10.37,2013-03-21 01:38:00,
2013-03-20 21:39:00,38.1,26.6,29.90,NW,320,11.5,11.5,63,0.00,,,0.00,WeatherDisplay:10.37,2013-03-21 01:39:00,
2013-03-20 21:40:00,38.0,26.9,29.90,NNW,336,11.5,11.5,64,0.00,,,0.00,WeatherDisplay:10.37,2013-03-21 01:40:00,
2013-03-20 21:44:00,37.7,27.4,29.90,WNW,302,12.7,12.7,66,0.00,,,0.00,WeatherDisplay:10.37,2013-03-21 01:44:00,
2013-03-20 21:45:00,37.6,27.3,29.90,SW,232,10.4,10.4,66,0.00,,,0.00,WeatherDisplay:10.37,2013-03-21 01:45:00,
2013-03-20 21:46:00,37.6,27.6,29.90,WNW,292,11.0,11.0,67,0.00,,,0.00,WeatherDisplay:10.37,2013-03-21 01:46:00,
2013-03-20 21:49:00,37.3,28.4,29.91,WNW,293,9.2,9.2,70,0.00,,,0.00,WeatherDisplay:10.37,2013-03-21 01:49:00,
2013-03-20 21:50:00,37.2,28.3,29.91,WSW,252,11.5,11.5,70,0.00,,,0.00,WeatherDisplay:10.37,2013-03-21 01:50:00,
2013-03-20 21:51:00,37.1,28.9,29.91,WSW,250,8.1,8.1,72,0.00,,,0.00,WeatherDisplay:10.37,2013-03-21 01:51:00,
2013-03-20 21:55:00,36.0,29.8,29.91,West,275,5.0,12.0,78,0.00,,,0.00,WeatherDisplay:10.37,2013-03-21 01:55:00,
2013-03-20 21:56:00,35.2,30.3,29.91,WNW,290,10.0,10.0,82,0.00,,,0.00,WeatherDisplay:10.37,2013-03-21 01:56:00,
2013-03-20 22:00:00,34.3,30.3,29.92,WSW,253,6.9,6.9,85,0.00,,,0.00,WeatherDisplay:10.37,2013-03-21 02:00:00,
2013-03-20 22:02:00,33.9,30.4,29.91,WNW,303,5.8,5.8,87,0.00,,,0.00,WeatherDisplay:10.37,2013-03-21 02:02:00,
2013-03-20 22:05:00,33.5,30.3,29.91,West,264,5.8,5.8,88,0.00,,,0.00,WeatherDisplay:10.37,2013-03-21 02:05:00,
2013-03-20 22:07:00,33.3,30.4,29.91,WNW,289,5.8,5.8,89,0.00,,,0.00,WeatherDisplay:10.37,2013-03-21 02:07:00,
2013-03-20 22:10:00,33.1,30.5,29.91,SW,227,3.5,3.5,90,0.00,,,0.00,WeatherDisplay:10.37,2013-03-21 02:10:00,
2013-03-20 22:12:00,33.0,30.4,29.91,West,267,3.5,3.5,90,0.00,,,0.00,WeatherDisplay:10.37,2013-03-21 02:12:00,
2013-03-20 22:15:00,32.9,30.6,29.91,NW,314,2.3,2.3,91,0.00,,,0.00,WeatherDisplay:10.37,2013-03-21 02:15:00,
2013-03-20 22:17:00,32.8,30.5,29.91,WNW,283,3.5,3.5,91,0.00,,,0.00,WeatherDisplay:10.37,2013-03-21 02:17:00,
2013-03-20 22:18:00,32.8,30.5,29.91,WNW,293,3.5,3.5,91,0.00,,,0.00,WeatherDisplay:10.37,2013-03-21 02:18:00,
2013-03-20 22:20:00,32.8,30.5,29.91,WNW,303,6.9,6.9,91,0.00,,,0.00,WeatherDisplay:10.37,2013-03-21 02:20:00,
2013-03-20 22:21:00,32.8,30.5,29.91,WNW,298,6.9,6.9,91,0.00,,,0.00,WeatherDisplay:10.37,2013-03-21 02:21:00,
2013-03-20 22:23:00,32.8,30.2,29.91,West,260,4.6,4.6,90,0.00,,,0.00,WeatherDisplay:10.37,2013-03-21 02:23:00,
2013-03-20 22:25:00,32.8,30.2,29.91,WNW,290,3.5,3.5,90,0.00,,,0.00,WeatherDisplay:10.37,2013-03-21 02:25:00,
2013-03-20 22:26:00,32.8,30.2,29.91,West,261,3.5,3.5,90,0.00,,,0.00,WeatherDisplay:10.37,2013-03-21 02:26:00,
2013-03-20 22:28:00,32.8,29.9,29.91,WNW,299,4.6,4.6,89,0.00,,,0.00,WeatherDisplay:10.37,2013-03-21 02:28:00,
2013-03-20 22:31:00,32.8,29.9,29.91,WNW,300,4.6,4.6,89,0.00,,,0.00,WeatherDisplay:10.37,2013-03-21 02:31:00,
2013-03-20 22:33:00,32.8,29.9,29.91,NW,314,8.0,8.0,89,0.00,,,0.00,WeatherDisplay:10.37,2013-03-21 02:33:00,
2013-03-20 22:36:00,32.8,29.4,29.92,West,269,11.5,11.5,87,0.00,,,0.00,WeatherDisplay:10.37,2013-03-21 02:36:00,
2013-03-20 22:38:00,32.9,29.5,29.92,NW,324,8.1,8.1,87,0.00,,,0.00,WeatherDisplay:10.37,2013-03-21 02:38:00,
2013-03-20 22:39:00,32.9,29.5,29.92,West,271,4.6,4.6,87,0.00,,,0.00,WeatherDisplay:10.37,2013-03-21 02:39:00,
2013-03-20 22:41:00,32.8,29.4,29.92,West,262,7.0,7.0,87,0.00,,,0.00,WeatherDisplay:10.37,2013-03-21 02:41:00,
2013-03-20 22:43:00,32.7,29.0,29.92,WSW,255,10.4,10.4,86,0.00,,,0.00,WeatherDisplay:10.37,2013-03-21 02:43:00,
2013-03-20 22:44:00,32.7,28.7,29.92,WNW,303,10.4,10.4,85,0.00,,,0.00,WeatherDisplay:10.37,2013-03-21 02:44:00,
2013-03-20 22:46:00,32.7,28.4,29.92,West,272,11.5,11.5,84,0.00,,,0.00,WeatherDisplay:10.37,2013-03-21 02:46:00,
2013-03-20 22:48:00,32.6,28.3,29.92,WNW,283,8.0,8.0,84,0.00,,,0.00,WeatherDisplay:10.37,2013-03-21 02:48:00,
2013-03-20 22:49:00,32.5,27.6,29.92,WNW,286,9.2,9.2,82,0.00,,,0.00,WeatherDisplay:10.37,2013-03-21 02:49:00,
2013-03-20 22:51:00,32.5,27.9,29.92,WNW,289,5.0,5.0,83,0.00,,,0.00,WeatherDisplay:10.37,2013-03-21 02:51:00,
2013-03-20 22:52:00,32.5,27.9,29.92,West,278,5.0,5.0,83,0.00,,,0.00,WeatherDisplay:10.37,2013-03-21 02:52:00,
2013-03-20 22:53:00,32.4,27.8,29.92,WNW,296,5.8,5.8,83,0.00,,,0.00,WeatherDisplay:10.37,2013-03-21 02:53:00,
2013-03-20 22:54:00,32.3,27.4,29.92,WNW,291,4.6,4.6,82,0.00,,,0.00,WeatherDisplay:10.37,2013-03-21 02:54:00,
2013-03-20 22:56:00,32.2,26.7,29.92,WSW,245,9.2,9.2,80,0.00,,,0.00,WeatherDisplay:10.37,2013-03-21 02:56:00,
2013-03-20 22:57:00,32.2,26.7,29.92,SW,235,10.4,10.4,80,0.00,,,0.00,WeatherDisplay:10.37,2013-03-21 02:57:00,
2013-03-20 22:59:00,32.1,26.0,29.92,WNW,293,13.8,13.8,78,0.00,,,0.00,WeatherDisplay:10.37,2013-03-21 02:59:00,
2013-03-20 23:01:00,32.0,26.2,29.92,NW,309,5.8,5.8,79,0.00,,,0.00,WeatherDisplay:10.37,2013-03-21 03:01:00,
2013-03-20 23:02:00,32.0,26.2,29.92,West,262,5.8,5.8,79,0.00,,,0.00,WeatherDisplay:10.37,2013-03-21 03:02:00,
2013-03-20 23:04:00,31.9,26.1,29.92,SW,222,10.4,10.4,79,0.00,,,0.00,WeatherDisplay:10.37,2013-03-21 03:04:00,
2013-03-20 23:06:00,31.9,25.8,29.92,WNW,288,5.8,5.8,78,0.00,,,0.00,WeatherDisplay:10.37,2013-03-21 03:06:00,
2013-03-20 23:07:00,31.9,25.8,29.92,West,281,9.2,9.2,78,0.00,,,0.00,WeatherDisplay:10.37,2013-03-21 03:07:00,
2013-03-20 23:09:00,31.9,25.8,29.92,NW,305,7.0,7.0,78,0.00,,,0.00,WeatherDisplay:10.37,2013-03-21 03:09:00,
2013-03-20 23:12:00,31.8,26.0,29.92,WSW,245,8.1,8.1,79,0.00,,,0.00,WeatherDisplay:10.37,2013-03-21 03:12:00,
2013-03-20 23:13:00,31.9,26.1,29.92,West,264,3.5,3.5,79,0.00,,,0.00,WeatherDisplay:10.37,2013-03-21 03:13:00,
2013-03-20 23:15:00,31.9,26.1,29.92,WNW,296,5.8,5.8,79,0.00,,,0.00,WeatherDisplay:10.37,2013-03-21 03:15:00,
2013-03-20 23:18:00,31.8,26.3,29.92,WSW,237,3.5,3.5,80,0.00,,,0.00,WeatherDisplay:10.37,2013-03-21 03:18:00,
2013-03-20 23:20:00,31.8,26.0,29.92,SW,235,5.8,5.8,79,0.00,,,0.00,WeatherDisplay:10.37,2013-03-21 03:20:00,
2013-03-20 23:21:00,31.8,26.3,29.92,WSW,254,4.6,4.6,80,0.00,,,0.00,WeatherDisplay:10.37,2013-03-21 03:21:00,
2013-03-20 23:23:00,31.8,26.0,29.92,WSW,253,6.9,6.9,79,0.00,,,0.00,WeatherDisplay:10.37,2013-03-21 03:23:00,
2013-03-20 23:25:00,31.8,26.0,29.92,WSW,243,2.3,2.3,79,0.00,,,0.00,WeatherDisplay:10.37,2013-03-21 03:25:00,
2013-03-20 23:26:00,31.8,26.0,29.92,WSW,249,4.6,4.6,79,0.00,,,0.00,WeatherDisplay:10.37,2013-03-21 03:26:00,
2013-03-20 23:28:00,31.8,25.7,29.92,West,281,9.2,9.2,78,0.00,,,0.00,WeatherDisplay:10.37,2013-03-21 03:28:00,
2013-03-20 23:30:00,31.7,25.9,29.92,WSW,240,3.5,3.5,79,0.00,,,0.00,WeatherDisplay:10.37,2013-03-21 03:30:00,
2013-03-20 23:32:00,31.7,25.9,29.92,West,264,8.0,8.0,79,0.00,,,0.00,WeatherDisplay:10.37,2013-03-21 03:32:00,
2013-03-20 23:33:00,31.7,25.0,29.92,WSW,255,10.4,10.4,76,0.00,,,0.00,WeatherDisplay:10.37,2013-03-21 03:33:00,
2013-03-20 23:34:00,31.7,25.0,29.92,West,262,10.4,10.4,76,0.00,,,0.00,WeatherDisplay:10.37,2013-03-21 03:34:00,
2013-03-20 23:35:00,31.7,25.0,29.92,NW,313,4.6,4.6,76,0.00,,,0.00,WeatherDisplay:10.37,2013-03-21 03:35:00,
2013-03-20 23:37:00,31.8,24.8,29.92,WSW,257,11.5,11.5,75,0.00,,,0.00,WeatherDisplay:10.37,2013-03-21 03:37:00,
2013-03-20 23:39:00,31.7,24.4,29.92,NW,326,6.9,6.9,74,0.00,,,0.00,WeatherDisplay:10.37,2013-03-21 03:39:00,
2013-03-20 23:40:00,31.7,24.4,29.92,WNW,283,6.0,6.0,74,0.00,,,0.00,WeatherDisplay:10.37,2013-03-21 03:40:00,
2013-03-20 23:43:00,31.7,24.4,29.92,West,260,6.9,6.9,74,0.00,,,0.00,WeatherDisplay:10.37,2013-03-21 03:43:00,
2013-03-20 23:44:00,31.7,24.4,29.92,WSW,254,4.6,4.6,74,0.00,,,0.00,WeatherDisplay:10.37,2013-03-21 03:44:00,
2013-03-20 23:45:00,31.7,24.7,29.92,WSW,255,4.6,4.6,75,0.00,,,0.00,WeatherDisplay:10.37,2013-03-21 03:45:00,
2013-03-20 23:48:00,31.6,24.6,29.92,WSW,249,9.2,9.2,75,0.00,,,0.00,WeatherDisplay:10.37,2013-03-21 03:48:00,
2013-03-20 23:49:00,31.6,23.9,29.92,West,264,10.4,10.4,73,0.00,,,0.00,WeatherDisplay:10.37,2013-03-21 03:49:00,
2013-03-20 23:51:00,31.6,23.9,29.92,WSW,253,4.6,4.6,73,0.00,,,0.00,WeatherDisplay:10.37,2013-03-21 03:51:00,
2013-03-20 23:53:00,31.6,23.6,29.92,WSW,242,11.5,11.5,72,0.00,,,0.00,WeatherDisplay:10.37,2013-03-21 03:53:00,
2013-03-20 23:54:00,31.6,23.6,29.92,WNW,295,8.1,8.1,72,0.00,,,0.00,WeatherDisplay:10.37,2013-03-21 03:54:00,
2013-03-20 23:56:00,31.5,23.8,29.92,WSW,245,5.8,5.8,73,0.00,,,0.00,WeatherDisplay:10.37,2013-03-21 03:56:00,
2013-03-20 23:57:00,31.5,23.5,29.92,SW,231,9.2,9.2,72,0.00,,,0.00,WeatherDisplay:10.37,2013-03-21 03:57:00,
2013-03-20 23:59:00,31.4,22.7,29.92,West,280,10.4,10.4,70,0.00,,,0.00,WeatherDisplay:10.37,2013-03-21 03:59:00,